<?xml version="1.0" encoding="UTF-8" standalone="no" ?>
<gpx xmlns="http://www.topografix.com/GPX/1/1" xmlns:xsi="http://www.w3.org/2001/XMLSchema-instance" xsi:schemaLocation="http://www.topografix.com/GPX/1/1 http://www.topografix.com/GPX/1/1/gpx.xsd" version="1.1" creator="VisuGPX - https://www.visugpx.com">
  <metadata>
    <name>83 - L - Vérignon </name>
    <desc><![CDATA[83 - L - Vérignon : les deux chapelles 
2023-11-13]]></desc>
  </metadata>
  <trk>
    <name><![CDATA[Vérignon - les deux chapelles 2023-11-13-02]]></name>
    <trkseg>
      <trkpt lat="43.65364" lon="6.27234">
        <ele>854.2</ele>
        <time>2023-11-13T08:33:50Z</time>
      </trkpt>
      <trkpt lat="43.65364" lon="6.27233">
        <ele>854.2</ele>
        <time>2023-11-13T08:33:51Z</time>
      </trkpt>
      <trkpt lat="43.65361" lon="6.27221">
        <ele>852.6</ele>
        <time>2023-11-13T08:34:13Z</time>
      </trkpt>
      <trkpt lat="43.65363" lon="6.27209">
        <ele>855</ele>
        <time>2023-11-13T08:34:22Z</time>
      </trkpt>
      <trkpt lat="43.65367" lon="6.27196">
        <ele>854.1</ele>
        <time>2023-11-13T08:34:33Z</time>
      </trkpt>
      <trkpt lat="43.65371" lon="6.27184">
        <ele>855.5</ele>
        <time>2023-11-13T08:34:46Z</time>
      </trkpt>
      <trkpt lat="43.65376" lon="6.27173">
        <ele>854.6</ele>
        <time>2023-11-13T08:34:56Z</time>
      </trkpt>
      <trkpt lat="43.6538" lon="6.27161">
        <ele>853.7</ele>
        <time>2023-11-13T08:35:06Z</time>
      </trkpt>
      <trkpt lat="43.65381" lon="6.27148">
        <ele>853.8</ele>
        <time>2023-11-13T08:35:16Z</time>
      </trkpt>
      <trkpt lat="43.65384" lon="6.27137">
        <ele>853.4</ele>
        <time>2023-11-13T08:35:29Z</time>
      </trkpt>
      <trkpt lat="43.65384" lon="6.27123">
        <ele>854.2</ele>
        <time>2023-11-13T08:35:40Z</time>
      </trkpt>
      <trkpt lat="43.65388" lon="6.27111">
        <ele>854.7</ele>
        <time>2023-11-13T08:35:50Z</time>
      </trkpt>
      <trkpt lat="43.65389" lon="6.27098">
        <ele>854.8</ele>
        <time>2023-11-13T08:35:59Z</time>
      </trkpt>
      <trkpt lat="43.65392" lon="6.27085">
        <ele>854.6</ele>
        <time>2023-11-13T08:36:09Z</time>
      </trkpt>
      <trkpt lat="43.65391" lon="6.27073">
        <ele>853.7</ele>
        <time>2023-11-13T08:36:18Z</time>
      </trkpt>
      <trkpt lat="43.65389" lon="6.2706">
        <ele>854.1</ele>
        <time>2023-11-13T08:36:30Z</time>
      </trkpt>
      <trkpt lat="43.65386" lon="6.27048">
        <ele>851.8</ele>
        <time>2023-11-13T08:36:49Z</time>
      </trkpt>
      <trkpt lat="43.65384" lon="6.27036">
        <ele>851.3</ele>
        <time>2023-11-13T08:37:04Z</time>
      </trkpt>
      <trkpt lat="43.6539" lon="6.27023">
        <ele>855.4</ele>
        <time>2023-11-13T08:37:15Z</time>
      </trkpt>
      <trkpt lat="43.65391" lon="6.27009">
        <ele>855.6</ele>
        <time>2023-11-13T08:37:26Z</time>
      </trkpt>
      <trkpt lat="43.65395" lon="6.26996">
        <ele>855.7</ele>
        <time>2023-11-13T08:37:39Z</time>
      </trkpt>
      <trkpt lat="43.65398" lon="6.26983">
        <ele>855.7</ele>
        <time>2023-11-13T08:37:52Z</time>
      </trkpt>
      <trkpt lat="43.65401" lon="6.26971">
        <ele>855.7</ele>
        <time>2023-11-13T08:38:05Z</time>
      </trkpt>
      <trkpt lat="43.65402" lon="6.26958">
        <ele>855.8</ele>
        <time>2023-11-13T08:38:17Z</time>
      </trkpt>
      <trkpt lat="43.65404" lon="6.26945">
        <ele>856.2</ele>
        <time>2023-11-13T08:38:30Z</time>
      </trkpt>
      <trkpt lat="43.65405" lon="6.26933">
        <ele>856.3</ele>
        <time>2023-11-13T08:38:42Z</time>
      </trkpt>
      <trkpt lat="43.65408" lon="6.2692">
        <ele>857.1</ele>
        <time>2023-11-13T08:38:54Z</time>
      </trkpt>
      <trkpt lat="43.65411" lon="6.26908">
        <ele>857.2</ele>
        <time>2023-11-13T08:39:09Z</time>
      </trkpt>
      <trkpt lat="43.65413" lon="6.26895">
        <ele>857.5</ele>
        <time>2023-11-13T08:39:23Z</time>
      </trkpt>
      <trkpt lat="43.65415" lon="6.26882">
        <ele>857.8</ele>
        <time>2023-11-13T08:39:35Z</time>
      </trkpt>
      <trkpt lat="43.65415" lon="6.26869">
        <ele>857.6</ele>
        <time>2023-11-13T08:39:49Z</time>
      </trkpt>
      <trkpt lat="43.65418" lon="6.26856">
        <ele>857.6</ele>
        <time>2023-11-13T08:40:01Z</time>
      </trkpt>
      <trkpt lat="43.6542" lon="6.26844">
        <ele>857.9</ele>
        <time>2023-11-13T08:40:16Z</time>
      </trkpt>
      <trkpt lat="43.65417" lon="6.26831">
        <ele>858.5</ele>
        <time>2023-11-13T08:40:39Z</time>
      </trkpt>
      <trkpt lat="43.65417" lon="6.26818">
        <ele>858.6</ele>
        <time>2023-11-13T08:40:48Z</time>
      </trkpt>
      <trkpt lat="43.65418" lon="6.26805">
        <ele>858.5</ele>
        <time>2023-11-13T08:40:57Z</time>
      </trkpt>
      <trkpt lat="43.65418" lon="6.26791">
        <ele>858.6</ele>
        <time>2023-11-13T08:41:07Z</time>
      </trkpt>
      <trkpt lat="43.65419" lon="6.26778">
        <ele>859</ele>
        <time>2023-11-13T08:41:16Z</time>
      </trkpt>
      <trkpt lat="43.65416" lon="6.26766">
        <ele>859.3</ele>
        <time>2023-11-13T08:41:25Z</time>
      </trkpt>
      <trkpt lat="43.65414" lon="6.26752">
        <ele>859.2</ele>
        <time>2023-11-13T08:41:36Z</time>
      </trkpt>
      <trkpt lat="43.65415" lon="6.26739">
        <ele>859</ele>
        <time>2023-11-13T08:41:47Z</time>
      </trkpt>
      <trkpt lat="43.65416" lon="6.26725">
        <ele>859.3</ele>
        <time>2023-11-13T08:41:58Z</time>
      </trkpt>
      <trkpt lat="43.65417" lon="6.26712">
        <ele>859.2</ele>
        <time>2023-11-13T08:42:08Z</time>
      </trkpt>
      <trkpt lat="43.65417" lon="6.26699">
        <ele>859.3</ele>
        <time>2023-11-13T08:42:19Z</time>
      </trkpt>
      <trkpt lat="43.65418" lon="6.26686">
        <ele>859.5</ele>
        <time>2023-11-13T08:42:34Z</time>
      </trkpt>
      <trkpt lat="43.65419" lon="6.26673">
        <ele>860.5</ele>
        <time>2023-11-13T08:42:44Z</time>
      </trkpt>
      <trkpt lat="43.6542" lon="6.26659">
        <ele>860.5</ele>
        <time>2023-11-13T08:42:56Z</time>
      </trkpt>
      <trkpt lat="43.65422" lon="6.26647">
        <ele>860.6</ele>
        <time>2023-11-13T08:43:09Z</time>
      </trkpt>
      <trkpt lat="43.65424" lon="6.26634">
        <ele>861.4</ele>
        <time>2023-11-13T08:43:22Z</time>
      </trkpt>
      <trkpt lat="43.65425" lon="6.26622">
        <ele>861.8</ele>
        <time>2023-11-13T08:43:33Z</time>
      </trkpt>
      <trkpt lat="43.65428" lon="6.2661">
        <ele>862.3</ele>
        <time>2023-11-13T08:43:47Z</time>
      </trkpt>
      <trkpt lat="43.65428" lon="6.26597">
        <ele>862.8</ele>
        <time>2023-11-13T08:44:01Z</time>
      </trkpt>
      <trkpt lat="43.6543" lon="6.26584">
        <ele>863.1</ele>
        <time>2023-11-13T08:44:13Z</time>
      </trkpt>
      <trkpt lat="43.6543" lon="6.26571">
        <ele>863.7</ele>
        <time>2023-11-13T08:44:26Z</time>
      </trkpt>
      <trkpt lat="43.65431" lon="6.26557">
        <ele>864</ele>
        <time>2023-11-13T08:44:39Z</time>
      </trkpt>
      <trkpt lat="43.6543" lon="6.26545">
        <ele>864.3</ele>
        <time>2023-11-13T08:44:50Z</time>
      </trkpt>
      <trkpt lat="43.6543" lon="6.26532">
        <ele>864.4</ele>
        <time>2023-11-13T08:45:02Z</time>
      </trkpt>
      <trkpt lat="43.6543" lon="6.26519">
        <ele>864.8</ele>
        <time>2023-11-13T08:45:13Z</time>
      </trkpt>
      <trkpt lat="43.65431" lon="6.26507">
        <ele>865.2</ele>
        <time>2023-11-13T08:45:26Z</time>
      </trkpt>
      <trkpt lat="43.65432" lon="6.26494">
        <ele>865.5</ele>
        <time>2023-11-13T08:45:39Z</time>
      </trkpt>
      <trkpt lat="43.65433" lon="6.26481">
        <ele>865.5</ele>
        <time>2023-11-13T08:45:52Z</time>
      </trkpt>
      <trkpt lat="43.65434" lon="6.26468">
        <ele>865.3</ele>
        <time>2023-11-13T08:46:07Z</time>
      </trkpt>
      <trkpt lat="43.65435" lon="6.26456">
        <ele>864.5</ele>
        <time>2023-11-13T08:46:33Z</time>
      </trkpt>
      <trkpt lat="43.65438" lon="6.26443">
        <ele>865.4</ele>
        <time>2023-11-13T08:47:14Z</time>
      </trkpt>
      <trkpt lat="43.6544" lon="6.26431">
        <ele>862.9</ele>
        <time>2023-11-13T08:47:30Z</time>
      </trkpt>
      <trkpt lat="43.65441" lon="6.26418">
        <ele>862.2</ele>
        <time>2023-11-13T08:47:44Z</time>
      </trkpt>
      <trkpt lat="43.65444" lon="6.26405">
        <ele>861.4</ele>
        <time>2023-11-13T08:47:56Z</time>
      </trkpt>
      <trkpt lat="43.65445" lon="6.26392">
        <ele>864.2</ele>
        <time>2023-11-13T08:48:07Z</time>
      </trkpt>
      <trkpt lat="43.65446" lon="6.26379">
        <ele>864.8</ele>
        <time>2023-11-13T08:48:17Z</time>
      </trkpt>
      <trkpt lat="43.65447" lon="6.26366">
        <ele>865.1</ele>
        <time>2023-11-13T08:48:30Z</time>
      </trkpt>
      <trkpt lat="43.65449" lon="6.26353">
        <ele>864.8</ele>
        <time>2023-11-13T08:48:44Z</time>
      </trkpt>
      <trkpt lat="43.65447" lon="6.2634">
        <ele>864.8</ele>
        <time>2023-11-13T08:48:56Z</time>
      </trkpt>
      <trkpt lat="43.65444" lon="6.26329">
        <ele>861.8</ele>
        <time>2023-11-13T08:52:03Z</time>
      </trkpt>
      <trkpt lat="43.65435" lon="6.26324">
        <ele>862.8</ele>
        <time>2023-11-13T08:52:19Z</time>
      </trkpt>
      <trkpt lat="43.65427" lon="6.26317">
        <ele>862.9</ele>
        <time>2023-11-13T08:52:32Z</time>
      </trkpt>
      <trkpt lat="43.65427" lon="6.26304">
        <ele>862.2</ele>
        <time>2023-11-13T08:52:44Z</time>
      </trkpt>
      <trkpt lat="43.6543" lon="6.26291">
        <ele>862.1</ele>
        <time>2023-11-13T08:52:54Z</time>
      </trkpt>
      <trkpt lat="43.65432" lon="6.26278">
        <ele>862.7</ele>
        <time>2023-11-13T08:53:03Z</time>
      </trkpt>
      <trkpt lat="43.6543" lon="6.26266">
        <ele>863.9</ele>
        <time>2023-11-13T08:53:16Z</time>
      </trkpt>
      <trkpt lat="43.65426" lon="6.26254">
        <ele>865.6</ele>
        <time>2023-11-13T08:53:30Z</time>
      </trkpt>
      <trkpt lat="43.65421" lon="6.26243">
        <ele>866.9</ele>
        <time>2023-11-13T08:53:47Z</time>
      </trkpt>
      <trkpt lat="43.6542" lon="6.2623">
        <ele>869.1</ele>
        <time>2023-11-13T08:54:04Z</time>
      </trkpt>
      <trkpt lat="43.65423" lon="6.26218">
        <ele>871.1</ele>
        <time>2023-11-13T08:54:19Z</time>
      </trkpt>
      <trkpt lat="43.65425" lon="6.26206">
        <ele>872.7</ele>
        <time>2023-11-13T08:54:33Z</time>
      </trkpt>
      <trkpt lat="43.65424" lon="6.26192">
        <ele>875</ele>
        <time>2023-11-13T08:54:49Z</time>
      </trkpt>
      <trkpt lat="43.65421" lon="6.26181">
        <ele>877.7</ele>
        <time>2023-11-13T08:55:10Z</time>
      </trkpt>
      <trkpt lat="43.65412" lon="6.26177">
        <ele>879.1</ele>
        <time>2023-11-13T08:55:24Z</time>
      </trkpt>
      <trkpt lat="43.65403" lon="6.26176">
        <ele>880.4</ele>
        <time>2023-11-13T08:55:40Z</time>
      </trkpt>
      <trkpt lat="43.65395" lon="6.26172">
        <ele>883.2</ele>
        <time>2023-11-13T08:55:59Z</time>
      </trkpt>
      <trkpt lat="43.65391" lon="6.2616">
        <ele>885.3</ele>
        <time>2023-11-13T08:56:48Z</time>
      </trkpt>
      <trkpt lat="43.65392" lon="6.26147">
        <ele>887.4</ele>
        <time>2023-11-13T08:57:00Z</time>
      </trkpt>
      <trkpt lat="43.65395" lon="6.26136">
        <ele>889.3</ele>
        <time>2023-11-13T08:57:18Z</time>
      </trkpt>
      <trkpt lat="43.654" lon="6.26124">
        <ele>890.2</ele>
        <time>2023-11-13T08:57:32Z</time>
      </trkpt>
      <trkpt lat="43.65403" lon="6.26112">
        <ele>891.4</ele>
        <time>2023-11-13T08:57:46Z</time>
      </trkpt>
      <trkpt lat="43.65407" lon="6.261">
        <ele>893.2</ele>
        <time>2023-11-13T08:58:00Z</time>
      </trkpt>
      <trkpt lat="43.6541" lon="6.26088">
        <ele>895.8</ele>
        <time>2023-11-13T08:58:15Z</time>
      </trkpt>
      <trkpt lat="43.65413" lon="6.26075">
        <ele>897.3</ele>
        <time>2023-11-13T08:58:29Z</time>
      </trkpt>
      <trkpt lat="43.65417" lon="6.26064">
        <ele>898</ele>
        <time>2023-11-13T08:58:48Z</time>
      </trkpt>
      <trkpt lat="43.65416" lon="6.26052">
        <ele>899.2</ele>
        <time>2023-11-13T08:59:00Z</time>
      </trkpt>
      <trkpt lat="43.65412" lon="6.26039">
        <ele>900.8</ele>
        <time>2023-11-13T08:59:14Z</time>
      </trkpt>
      <trkpt lat="43.65407" lon="6.26027">
        <ele>903.3</ele>
        <time>2023-11-13T08:59:38Z</time>
      </trkpt>
      <trkpt lat="43.65403" lon="6.26016">
        <ele>904.1</ele>
        <time>2023-11-13T08:59:50Z</time>
      </trkpt>
      <trkpt lat="43.65397" lon="6.26006">
        <ele>905.6</ele>
        <time>2023-11-13T09:00:03Z</time>
      </trkpt>
      <trkpt lat="43.6539" lon="6.25998">
        <ele>906.7</ele>
        <time>2023-11-13T09:00:16Z</time>
      </trkpt>
      <trkpt lat="43.65382" lon="6.25992">
        <ele>907.7</ele>
        <time>2023-11-13T09:00:26Z</time>
      </trkpt>
      <trkpt lat="43.65374" lon="6.25984">
        <ele>908.5</ele>
        <time>2023-11-13T09:00:36Z</time>
      </trkpt>
      <trkpt lat="43.65367" lon="6.25976">
        <ele>908.8</ele>
        <time>2023-11-13T09:00:47Z</time>
      </trkpt>
      <trkpt lat="43.65359" lon="6.25969">
        <ele>909.1</ele>
        <time>2023-11-13T09:01:04Z</time>
      </trkpt>
      <trkpt lat="43.65351" lon="6.25961">
        <ele>909</ele>
        <time>2023-11-13T09:01:13Z</time>
      </trkpt>
      <trkpt lat="43.65344" lon="6.25953">
        <ele>909.4</ele>
        <time>2023-11-13T09:01:24Z</time>
      </trkpt>
      <trkpt lat="43.65336" lon="6.25946">
        <ele>909.2</ele>
        <time>2023-11-13T09:01:35Z</time>
      </trkpt>
      <trkpt lat="43.65328" lon="6.25939">
        <ele>909.2</ele>
        <time>2023-11-13T09:01:46Z</time>
      </trkpt>
      <trkpt lat="43.65321" lon="6.2593">
        <ele>909.5</ele>
        <time>2023-11-13T09:01:59Z</time>
      </trkpt>
      <trkpt lat="43.65313" lon="6.25921">
        <ele>910.1</ele>
        <time>2023-11-13T09:02:10Z</time>
      </trkpt>
      <trkpt lat="43.65307" lon="6.25911">
        <ele>911.1</ele>
        <time>2023-11-13T09:02:23Z</time>
      </trkpt>
      <trkpt lat="43.65299" lon="6.25904">
        <ele>912</ele>
        <time>2023-11-13T09:02:35Z</time>
      </trkpt>
      <trkpt lat="43.65292" lon="6.25896">
        <ele>912.8</ele>
        <time>2023-11-13T09:02:46Z</time>
      </trkpt>
      <trkpt lat="43.65284" lon="6.2589">
        <ele>913.4</ele>
        <time>2023-11-13T09:02:59Z</time>
      </trkpt>
      <trkpt lat="43.65276" lon="6.25882">
        <ele>913.3</ele>
        <time>2023-11-13T09:03:10Z</time>
      </trkpt>
      <trkpt lat="43.65269" lon="6.25873">
        <ele>913.4</ele>
        <time>2023-11-13T09:03:22Z</time>
      </trkpt>
      <trkpt lat="43.65262" lon="6.25864">
        <ele>913.8</ele>
        <time>2023-11-13T09:03:34Z</time>
      </trkpt>
      <trkpt lat="43.65254" lon="6.25856">
        <ele>914</ele>
        <time>2023-11-13T09:03:46Z</time>
      </trkpt>
      <trkpt lat="43.65247" lon="6.25848">
        <ele>914.1</ele>
        <time>2023-11-13T09:03:56Z</time>
      </trkpt>
      <trkpt lat="43.65246" lon="6.25836">
        <ele>914.6</ele>
        <time>2023-11-13T09:04:10Z</time>
      </trkpt>
      <trkpt lat="43.65247" lon="6.25823">
        <ele>915.8</ele>
        <time>2023-11-13T09:04:23Z</time>
      </trkpt>
      <trkpt lat="43.65246" lon="6.25811">
        <ele>918.2</ele>
        <time>2023-11-13T09:04:37Z</time>
      </trkpt>
      <trkpt lat="43.65251" lon="6.25799">
        <ele>919.4</ele>
        <time>2023-11-13T09:04:53Z</time>
      </trkpt>
      <trkpt lat="43.65256" lon="6.25788">
        <ele>920.6</ele>
        <time>2023-11-13T09:05:09Z</time>
      </trkpt>
      <trkpt lat="43.65262" lon="6.25779">
        <ele>922.1</ele>
        <time>2023-11-13T09:05:23Z</time>
      </trkpt>
      <trkpt lat="43.65269" lon="6.2577">
        <ele>923.9</ele>
        <time>2023-11-13T09:05:40Z</time>
      </trkpt>
      <trkpt lat="43.65277" lon="6.25763">
        <ele>925.5</ele>
        <time>2023-11-13T09:05:59Z</time>
      </trkpt>
      <trkpt lat="43.65284" lon="6.25755">
        <ele>927.1</ele>
        <time>2023-11-13T09:08:13Z</time>
      </trkpt>
      <trkpt lat="43.65291" lon="6.25746">
        <ele>927.7</ele>
        <time>2023-11-13T09:08:27Z</time>
      </trkpt>
      <trkpt lat="43.65299" lon="6.25738">
        <ele>929.1</ele>
        <time>2023-11-13T09:08:57Z</time>
      </trkpt>
      <trkpt lat="43.65304" lon="6.25728">
        <ele>930.4</ele>
        <time>2023-11-13T09:09:12Z</time>
      </trkpt>
      <trkpt lat="43.65307" lon="6.25716">
        <ele>932.1</ele>
        <time>2023-11-13T09:09:28Z</time>
      </trkpt>
      <trkpt lat="43.65308" lon="6.25703">
        <ele>934.8</ele>
        <time>2023-11-13T09:09:44Z</time>
      </trkpt>
      <trkpt lat="43.65306" lon="6.2569">
        <ele>937.1</ele>
        <time>2023-11-13T09:09:58Z</time>
      </trkpt>
      <trkpt lat="43.65303" lon="6.25678">
        <ele>937.8</ele>
        <time>2023-11-13T09:10:11Z</time>
      </trkpt>
      <trkpt lat="43.65299" lon="6.25667">
        <ele>940.1</ele>
        <time>2023-11-13T09:10:27Z</time>
      </trkpt>
      <trkpt lat="43.65295" lon="6.25654">
        <ele>940.2</ele>
        <time>2023-11-13T09:10:39Z</time>
      </trkpt>
      <trkpt lat="43.65292" lon="6.25642">
        <ele>941</ele>
        <time>2023-11-13T09:10:51Z</time>
      </trkpt>
      <trkpt lat="43.65292" lon="6.25629">
        <ele>941.7</ele>
        <time>2023-11-13T09:11:03Z</time>
      </trkpt>
      <trkpt lat="43.65295" lon="6.25617">
        <ele>942.5</ele>
        <time>2023-11-13T09:11:14Z</time>
      </trkpt>
      <trkpt lat="43.65299" lon="6.25605">
        <ele>942.9</ele>
        <time>2023-11-13T09:11:24Z</time>
      </trkpt>
      <trkpt lat="43.65303" lon="6.25594">
        <ele>943.5</ele>
        <time>2023-11-13T09:11:36Z</time>
      </trkpt>
      <trkpt lat="43.65308" lon="6.25582">
        <ele>943.8</ele>
        <time>2023-11-13T09:12:10Z</time>
      </trkpt>
      <trkpt lat="43.65313" lon="6.25571">
        <ele>945.3</ele>
        <time>2023-11-13T09:12:40Z</time>
      </trkpt>
      <trkpt lat="43.65316" lon="6.25559">
        <ele>945.9</ele>
        <time>2023-11-13T09:12:51Z</time>
      </trkpt>
      <trkpt lat="43.65316" lon="6.25545">
        <ele>946.7</ele>
        <time>2023-11-13T09:13:01Z</time>
      </trkpt>
      <trkpt lat="43.65318" lon="6.25533">
        <ele>947</ele>
        <time>2023-11-13T09:13:10Z</time>
      </trkpt>
      <trkpt lat="43.65318" lon="6.2552">
        <ele>949.2</ele>
        <time>2023-11-13T09:13:23Z</time>
      </trkpt>
      <trkpt lat="43.65318" lon="6.25507">
        <ele>948.4</ele>
        <time>2023-11-13T09:13:34Z</time>
      </trkpt>
      <trkpt lat="43.65319" lon="6.25494">
        <ele>947.8</ele>
        <time>2023-11-13T09:13:44Z</time>
      </trkpt>
      <trkpt lat="43.65321" lon="6.25482">
        <ele>947.2</ele>
        <time>2023-11-13T09:13:56Z</time>
      </trkpt>
      <trkpt lat="43.65323" lon="6.25468">
        <ele>947</ele>
        <time>2023-11-13T09:14:07Z</time>
      </trkpt>
      <trkpt lat="43.65332" lon="6.25469">
        <ele>947</ele>
        <time>2023-11-13T09:14:30Z</time>
      </trkpt>
      <trkpt lat="43.65339" lon="6.25477">
        <ele>945.3</ele>
        <time>2023-11-13T09:14:41Z</time>
      </trkpt>
      <trkpt lat="43.65346" lon="6.25486">
        <ele>945.8</ele>
        <time>2023-11-13T09:14:51Z</time>
      </trkpt>
      <trkpt lat="43.6534" lon="6.25475">
        <ele>947.9</ele>
        <time>2023-11-13T09:15:44Z</time>
      </trkpt>
      <trkpt lat="43.65332" lon="6.25468">
        <ele>949.6</ele>
        <time>2023-11-13T09:15:55Z</time>
      </trkpt>
      <trkpt lat="43.65324" lon="6.25461">
        <ele>949</ele>
        <time>2023-11-13T09:16:09Z</time>
      </trkpt>
      <trkpt lat="43.65316" lon="6.25457">
        <ele>951.1</ele>
        <time>2023-11-13T09:17:35Z</time>
      </trkpt>
      <trkpt lat="43.65316" lon="6.25444">
        <ele>952.8</ele>
        <time>2023-11-13T09:22:37Z</time>
      </trkpt>
      <trkpt lat="43.65317" lon="6.25431">
        <ele>952.9</ele>
        <time>2023-11-13T09:22:51Z</time>
      </trkpt>
      <trkpt lat="43.65319" lon="6.25419">
        <ele>952.7</ele>
        <time>2023-11-13T09:23:06Z</time>
      </trkpt>
      <trkpt lat="43.6532" lon="6.25406">
        <ele>953.3</ele>
        <time>2023-11-13T09:23:19Z</time>
      </trkpt>
      <trkpt lat="43.65323" lon="6.25394">
        <ele>953.9</ele>
        <time>2023-11-13T09:23:30Z</time>
      </trkpt>
      <trkpt lat="43.65326" lon="6.25382">
        <ele>954.2</ele>
        <time>2023-11-13T09:23:42Z</time>
      </trkpt>
      <trkpt lat="43.65328" lon="6.25369">
        <ele>954.8</ele>
        <time>2023-11-13T09:23:56Z</time>
      </trkpt>
      <trkpt lat="43.65329" lon="6.25357">
        <ele>955.8</ele>
        <time>2023-11-13T09:24:09Z</time>
      </trkpt>
      <trkpt lat="43.65329" lon="6.25344">
        <ele>956.7</ele>
        <time>2023-11-13T09:24:19Z</time>
      </trkpt>
      <trkpt lat="43.65329" lon="6.25331">
        <ele>957.9</ele>
        <time>2023-11-13T09:24:32Z</time>
      </trkpt>
      <trkpt lat="43.65333" lon="6.25319">
        <ele>959.2</ele>
        <time>2023-11-13T09:24:44Z</time>
      </trkpt>
      <trkpt lat="43.65337" lon="6.25307">
        <ele>960.8</ele>
        <time>2023-11-13T09:24:58Z</time>
      </trkpt>
      <trkpt lat="43.6534" lon="6.25295">
        <ele>962.3</ele>
        <time>2023-11-13T09:25:10Z</time>
      </trkpt>
      <trkpt lat="43.65343" lon="6.25283">
        <ele>964</ele>
        <time>2023-11-13T09:25:26Z</time>
      </trkpt>
      <trkpt lat="43.65346" lon="6.25271">
        <ele>967.1</ele>
        <time>2023-11-13T09:25:39Z</time>
      </trkpt>
      <trkpt lat="43.65351" lon="6.2526">
        <ele>966.6</ele>
        <time>2023-11-13T09:26:11Z</time>
      </trkpt>
      <trkpt lat="43.65355" lon="6.25249">
        <ele>967.9</ele>
        <time>2023-11-13T09:26:32Z</time>
      </trkpt>
      <trkpt lat="43.65355" lon="6.25236">
        <ele>969.9</ele>
        <time>2023-11-13T09:26:45Z</time>
      </trkpt>
      <trkpt lat="43.65357" lon="6.25223">
        <ele>972.5</ele>
        <time>2023-11-13T09:26:59Z</time>
      </trkpt>
      <trkpt lat="43.65361" lon="6.25211">
        <ele>974.1</ele>
        <time>2023-11-13T09:27:11Z</time>
      </trkpt>
      <trkpt lat="43.65367" lon="6.25201">
        <ele>974.3</ele>
        <time>2023-11-13T09:27:22Z</time>
      </trkpt>
      <trkpt lat="43.65372" lon="6.25191">
        <ele>976.7</ele>
        <time>2023-11-13T09:29:15Z</time>
      </trkpt>
      <trkpt lat="43.65377" lon="6.25181">
        <ele>976.6</ele>
        <time>2023-11-13T09:29:29Z</time>
      </trkpt>
      <trkpt lat="43.65378" lon="6.25168">
        <ele>976.4</ele>
        <time>2023-11-13T09:29:44Z</time>
      </trkpt>
      <trkpt lat="43.65377" lon="6.25155">
        <ele>976.6</ele>
        <time>2023-11-13T09:29:59Z</time>
      </trkpt>
      <trkpt lat="43.65376" lon="6.25143">
        <ele>979</ele>
        <time>2023-11-13T09:30:36Z</time>
      </trkpt>
      <trkpt lat="43.65372" lon="6.25131">
        <ele>978.5</ele>
        <time>2023-11-13T09:30:53Z</time>
      </trkpt>
      <trkpt lat="43.65368" lon="6.25119">
        <ele>978.8</ele>
        <time>2023-11-13T09:31:04Z</time>
      </trkpt>
      <trkpt lat="43.65371" lon="6.25107">
        <ele>980.4</ele>
        <time>2023-11-13T09:32:40Z</time>
      </trkpt>
      <trkpt lat="43.65365" lon="6.25116">
        <ele>980.9</ele>
        <time>2023-11-13T09:37:23Z</time>
      </trkpt>
      <trkpt lat="43.65365" lon="6.25102">
        <ele>980.1</ele>
        <time>2023-11-13T09:37:58Z</time>
      </trkpt>
      <trkpt lat="43.65366" lon="6.25088">
        <ele>980.4</ele>
        <time>2023-11-13T09:38:06Z</time>
      </trkpt>
      <trkpt lat="43.65368" lon="6.25075">
        <ele>981.4</ele>
        <time>2023-11-13T09:38:14Z</time>
      </trkpt>
      <trkpt lat="43.65368" lon="6.25062">
        <ele>982.7</ele>
        <time>2023-11-13T09:38:22Z</time>
      </trkpt>
      <trkpt lat="43.6537" lon="6.25049">
        <ele>984.4</ele>
        <time>2023-11-13T09:38:30Z</time>
      </trkpt>
      <trkpt lat="43.65368" lon="6.25036">
        <ele>985.3</ele>
        <time>2023-11-13T09:38:37Z</time>
      </trkpt>
      <trkpt lat="43.65365" lon="6.25024">
        <ele>986</ele>
        <time>2023-11-13T09:38:45Z</time>
      </trkpt>
      <trkpt lat="43.65361" lon="6.25013">
        <ele>988</ele>
        <time>2023-11-13T09:39:53Z</time>
      </trkpt>
      <trkpt lat="43.65363" lon="6.25">
        <ele>988.9</ele>
        <time>2023-11-13T09:40:05Z</time>
      </trkpt>
      <trkpt lat="43.65359" lon="6.24989">
        <ele>989.5</ele>
        <time>2023-11-13T09:40:15Z</time>
      </trkpt>
      <trkpt lat="43.65357" lon="6.24976">
        <ele>989.3</ele>
        <time>2023-11-13T09:40:29Z</time>
      </trkpt>
      <trkpt lat="43.65355" lon="6.24963">
        <ele>993.5</ele>
        <time>2023-11-13T09:41:02Z</time>
      </trkpt>
      <trkpt lat="43.65347" lon="6.24967">
        <ele>992</ele>
        <time>2023-11-13T09:42:06Z</time>
      </trkpt>
      <trkpt lat="43.65355" lon="6.24962">
        <ele>991</ele>
        <time>2023-11-13T09:45:43Z</time>
      </trkpt>
      <trkpt lat="43.6536" lon="6.24973">
        <ele>988.9</ele>
        <time>2023-11-13T09:46:39Z</time>
      </trkpt>
      <trkpt lat="43.65359" lon="6.24986">
        <ele>988.4</ele>
        <time>2023-11-13T09:47:07Z</time>
      </trkpt>
      <trkpt lat="43.65361" lon="6.24998">
        <ele>987.8</ele>
        <time>2023-11-13T09:47:25Z</time>
      </trkpt>
      <trkpt lat="43.65363" lon="6.2501">
        <ele>987.4</ele>
        <time>2023-11-13T09:47:47Z</time>
      </trkpt>
      <trkpt lat="43.65356" lon="6.25019">
        <ele>987</ele>
        <time>2023-11-13T09:48:34Z</time>
      </trkpt>
      <trkpt lat="43.65363" lon="6.25026">
        <ele>986.4</ele>
        <time>2023-11-13T09:48:53Z</time>
      </trkpt>
      <trkpt lat="43.65367" lon="6.25038">
        <ele>984.7</ele>
        <time>2023-11-13T09:49:04Z</time>
      </trkpt>
      <trkpt lat="43.65366" lon="6.25051">
        <ele>984.1</ele>
        <time>2023-11-13T09:49:15Z</time>
      </trkpt>
      <trkpt lat="43.65365" lon="6.25063">
        <ele>983.1</ele>
        <time>2023-11-13T09:49:31Z</time>
      </trkpt>
      <trkpt lat="43.65365" lon="6.25077">
        <ele>981</ele>
        <time>2023-11-13T09:49:51Z</time>
      </trkpt>
      <trkpt lat="43.65364" lon="6.25089">
        <ele>977.3</ele>
        <time>2023-11-13T09:50:12Z</time>
      </trkpt>
      <trkpt lat="43.65366" lon="6.25102">
        <ele>979.2</ele>
        <time>2023-11-13T09:50:24Z</time>
      </trkpt>
      <trkpt lat="43.65368" lon="6.25115">
        <ele>978</ele>
        <time>2023-11-13T09:50:34Z</time>
      </trkpt>
      <trkpt lat="43.65371" lon="6.25127">
        <ele>977.2</ele>
        <time>2023-11-13T09:50:45Z</time>
      </trkpt>
      <trkpt lat="43.65375" lon="6.25139">
        <ele>976.7</ele>
        <time>2023-11-13T09:50:58Z</time>
      </trkpt>
      <trkpt lat="43.65377" lon="6.25151">
        <ele>975.7</ele>
        <time>2023-11-13T09:51:11Z</time>
      </trkpt>
      <trkpt lat="43.65381" lon="6.25164">
        <ele>972.5</ele>
        <time>2023-11-13T09:51:24Z</time>
      </trkpt>
      <trkpt lat="43.65379" lon="6.25176">
        <ele>975</ele>
        <time>2023-11-13T09:51:36Z</time>
      </trkpt>
      <trkpt lat="43.65375" lon="6.25188">
        <ele>973</ele>
        <time>2023-11-13T09:51:50Z</time>
      </trkpt>
      <trkpt lat="43.65368" lon="6.25197">
        <ele>972.3</ele>
        <time>2023-11-13T09:52:03Z</time>
      </trkpt>
      <trkpt lat="43.65362" lon="6.25208">
        <ele>971.5</ele>
        <time>2023-11-13T09:52:16Z</time>
      </trkpt>
      <trkpt lat="43.65357" lon="6.25219">
        <ele>970.7</ele>
        <time>2023-11-13T09:52:25Z</time>
      </trkpt>
      <trkpt lat="43.65355" lon="6.25232">
        <ele>967.7</ele>
        <time>2023-11-13T09:52:41Z</time>
      </trkpt>
      <trkpt lat="43.65354" lon="6.25244">
        <ele>970</ele>
        <time>2023-11-13T09:52:53Z</time>
      </trkpt>
      <trkpt lat="43.65352" lon="6.25257">
        <ele>969.2</ele>
        <time>2023-11-13T09:53:19Z</time>
      </trkpt>
      <trkpt lat="43.65349" lon="6.25269">
        <ele>967.3</ele>
        <time>2023-11-13T09:53:41Z</time>
      </trkpt>
      <trkpt lat="43.65345" lon="6.2528">
        <ele>965.3</ele>
        <time>2023-11-13T09:54:02Z</time>
      </trkpt>
      <trkpt lat="43.6534" lon="6.25293">
        <ele>963.3</ele>
        <time>2023-11-13T09:54:18Z</time>
      </trkpt>
      <trkpt lat="43.65337" lon="6.25305">
        <ele>961.7</ele>
        <time>2023-11-13T09:54:30Z</time>
      </trkpt>
      <trkpt lat="43.65331" lon="6.25315">
        <ele>960.5</ele>
        <time>2023-11-13T09:54:40Z</time>
      </trkpt>
      <trkpt lat="43.65327" lon="6.25326">
        <ele>958.8</ele>
        <time>2023-11-13T09:54:54Z</time>
      </trkpt>
      <trkpt lat="43.65328" lon="6.25339">
        <ele>957.1</ele>
        <time>2023-11-13T09:55:08Z</time>
      </trkpt>
      <trkpt lat="43.65327" lon="6.25352">
        <ele>956.2</ele>
        <time>2023-11-13T09:55:16Z</time>
      </trkpt>
      <trkpt lat="43.65327" lon="6.25365">
        <ele>955.3</ele>
        <time>2023-11-13T09:55:25Z</time>
      </trkpt>
      <trkpt lat="43.65326" lon="6.25379">
        <ele>954.2</ele>
        <time>2023-11-13T09:55:37Z</time>
      </trkpt>
      <trkpt lat="43.65323" lon="6.25392">
        <ele>953.1</ele>
        <time>2023-11-13T09:55:47Z</time>
      </trkpt>
      <trkpt lat="43.65322" lon="6.25405">
        <ele>952.5</ele>
        <time>2023-11-13T09:55:55Z</time>
      </trkpt>
      <trkpt lat="43.65321" lon="6.25418">
        <ele>951.9</ele>
        <time>2023-11-13T09:56:03Z</time>
      </trkpt>
      <trkpt lat="43.65319" lon="6.25431">
        <ele>951.5</ele>
        <time>2023-11-13T09:56:12Z</time>
      </trkpt>
      <trkpt lat="43.65312" lon="6.2544">
        <ele>951.1</ele>
        <time>2023-11-13T09:56:23Z</time>
      </trkpt>
      <trkpt lat="43.65304" lon="6.25447">
        <ele>951.3</ele>
        <time>2023-11-13T09:56:55Z</time>
      </trkpt>
      <trkpt lat="43.65296" lon="6.25452">
        <ele>950.1</ele>
        <time>2023-11-13T09:59:19Z</time>
      </trkpt>
      <trkpt lat="43.65287" lon="6.25458">
        <ele>949.8</ele>
        <time>2023-11-13T09:59:32Z</time>
      </trkpt>
      <trkpt lat="43.6528" lon="6.25467">
        <ele>949.5</ele>
        <time>2023-11-13T09:59:42Z</time>
      </trkpt>
      <trkpt lat="43.65274" lon="6.25478">
        <ele>949.6</ele>
        <time>2023-11-13T09:59:55Z</time>
      </trkpt>
      <trkpt lat="43.65267" lon="6.25486">
        <ele>949.9</ele>
        <time>2023-11-13T10:00:11Z</time>
      </trkpt>
      <trkpt lat="43.65261" lon="6.25495">
        <ele>950.1</ele>
        <time>2023-11-13T10:00:21Z</time>
      </trkpt>
      <trkpt lat="43.65251" lon="6.25495">
        <ele>950.2</ele>
        <time>2023-11-13T10:00:29Z</time>
      </trkpt>
      <trkpt lat="43.65242" lon="6.255">
        <ele>949.7</ele>
        <time>2023-11-13T10:00:40Z</time>
      </trkpt>
      <trkpt lat="43.65234" lon="6.25507">
        <ele>947.9</ele>
        <time>2023-11-13T10:00:50Z</time>
      </trkpt>
      <trkpt lat="43.65228" lon="6.25516">
        <ele>946.9</ele>
        <time>2023-11-13T10:01:01Z</time>
      </trkpt>
      <trkpt lat="43.65223" lon="6.25527">
        <ele>947.1</ele>
        <time>2023-11-13T10:01:11Z</time>
      </trkpt>
      <trkpt lat="43.65216" lon="6.25534">
        <ele>949</ele>
        <time>2023-11-13T10:01:23Z</time>
      </trkpt>
      <trkpt lat="43.65213" lon="6.25546">
        <ele>950.2</ele>
        <time>2023-11-13T10:01:38Z</time>
      </trkpt>
      <trkpt lat="43.65206" lon="6.25554">
        <ele>950.9</ele>
        <time>2023-11-13T10:01:51Z</time>
      </trkpt>
      <trkpt lat="43.65197" lon="6.25561">
        <ele>951</ele>
        <time>2023-11-13T10:01:57Z</time>
      </trkpt>
      <trkpt lat="43.6519" lon="6.25569">
        <ele>954.3</ele>
        <time>2023-11-13T10:02:08Z</time>
      </trkpt>
      <trkpt lat="43.65182" lon="6.25574">
        <ele>955.7</ele>
        <time>2023-11-13T10:02:20Z</time>
      </trkpt>
      <trkpt lat="43.65173" lon="6.25573">
        <ele>956.6</ele>
        <time>2023-11-13T10:02:32Z</time>
      </trkpt>
      <trkpt lat="43.65164" lon="6.25573">
        <ele>956.4</ele>
        <time>2023-11-13T10:02:47Z</time>
      </trkpt>
      <trkpt lat="43.65157" lon="6.25583">
        <ele>957</ele>
        <time>2023-11-13T10:02:59Z</time>
      </trkpt>
      <trkpt lat="43.65149" lon="6.25588">
        <ele>957.8</ele>
        <time>2023-11-13T10:03:10Z</time>
      </trkpt>
      <trkpt lat="43.65141" lon="6.25595">
        <ele>958.5</ele>
        <time>2023-11-13T10:03:20Z</time>
      </trkpt>
      <trkpt lat="43.65134" lon="6.25603">
        <ele>959.5</ele>
        <time>2023-11-13T10:04:36Z</time>
      </trkpt>
      <trkpt lat="43.65128" lon="6.25613">
        <ele>959.7</ele>
        <time>2023-11-13T10:05:27Z</time>
      </trkpt>
      <trkpt lat="43.65127" lon="6.25626">
        <ele>960.7</ele>
        <time>2023-11-13T10:05:42Z</time>
      </trkpt>
      <trkpt lat="43.65123" lon="6.25638">
        <ele>961.7</ele>
        <time>2023-11-13T10:05:58Z</time>
      </trkpt>
      <trkpt lat="43.65116" lon="6.25648">
        <ele>963</ele>
        <time>2023-11-13T10:06:12Z</time>
      </trkpt>
      <trkpt lat="43.65109" lon="6.25656">
        <ele>964.1</ele>
        <time>2023-11-13T10:06:26Z</time>
      </trkpt>
      <trkpt lat="43.65102" lon="6.25665">
        <ele>965</ele>
        <time>2023-11-13T10:06:44Z</time>
      </trkpt>
      <trkpt lat="43.65097" lon="6.25675">
        <ele>966.4</ele>
        <time>2023-11-13T10:06:56Z</time>
      </trkpt>
      <trkpt lat="43.65097" lon="6.25688">
        <ele>966.5</ele>
        <time>2023-11-13T10:07:12Z</time>
      </trkpt>
      <trkpt lat="43.65105" lon="6.25694">
        <ele>965.9</ele>
        <time>2023-11-13T10:07:24Z</time>
      </trkpt>
      <trkpt lat="43.65109" lon="6.25706">
        <ele>966.9</ele>
        <time>2023-11-13T10:07:37Z</time>
      </trkpt>
      <trkpt lat="43.65113" lon="6.25717">
        <ele>969</ele>
        <time>2023-11-13T10:08:03Z</time>
      </trkpt>
      <trkpt lat="43.65115" lon="6.25729">
        <ele>971.4</ele>
        <time>2023-11-13T10:10:47Z</time>
      </trkpt>
      <trkpt lat="43.65115" lon="6.25742">
        <ele>969.8</ele>
        <time>2023-11-13T10:11:04Z</time>
      </trkpt>
      <trkpt lat="43.65115" lon="6.25754">
        <ele>969.2</ele>
        <time>2023-11-13T10:11:16Z</time>
      </trkpt>
      <trkpt lat="43.65116" lon="6.25767">
        <ele>968.3</ele>
        <time>2023-11-13T10:11:31Z</time>
      </trkpt>
      <trkpt lat="43.6512" lon="6.25779">
        <ele>966.7</ele>
        <time>2023-11-13T10:12:03Z</time>
      </trkpt>
      <trkpt lat="43.65121" lon="6.25792">
        <ele>966.1</ele>
        <time>2023-11-13T10:12:17Z</time>
      </trkpt>
      <trkpt lat="43.65123" lon="6.25804">
        <ele>965.2</ele>
        <time>2023-11-13T10:12:32Z</time>
      </trkpt>
      <trkpt lat="43.65125" lon="6.25817">
        <ele>962.7</ele>
        <time>2023-11-13T10:13:06Z</time>
      </trkpt>
      <trkpt lat="43.65126" lon="6.2583">
        <ele>962.7</ele>
        <time>2023-11-13T10:13:42Z</time>
      </trkpt>
      <trkpt lat="43.6513" lon="6.25841">
        <ele>965.6</ele>
        <time>2023-11-13T10:14:03Z</time>
      </trkpt>
      <trkpt lat="43.65131" lon="6.25855">
        <ele>966.5</ele>
        <time>2023-11-13T10:14:20Z</time>
      </trkpt>
      <trkpt lat="43.65131" lon="6.25868">
        <ele>967.7</ele>
        <time>2023-11-13T10:14:40Z</time>
      </trkpt>
      <trkpt lat="43.65129" lon="6.2588">
        <ele>970.3</ele>
        <time>2023-11-13T10:16:05Z</time>
      </trkpt>
      <trkpt lat="43.65127" lon="6.25893">
        <ele>971.5</ele>
        <time>2023-11-13T10:16:18Z</time>
      </trkpt>
      <trkpt lat="43.65123" lon="6.25905">
        <ele>972.7</ele>
        <time>2023-11-13T10:16:34Z</time>
      </trkpt>
      <trkpt lat="43.6512" lon="6.25917">
        <ele>974.2</ele>
        <time>2023-11-13T10:17:23Z</time>
      </trkpt>
      <trkpt lat="43.6512" lon="6.25931">
        <ele>973.6</ele>
        <time>2023-11-13T10:17:36Z</time>
      </trkpt>
      <trkpt lat="43.6512" lon="6.25944">
        <ele>974.7</ele>
        <time>2023-11-13T10:18:06Z</time>
      </trkpt>
      <trkpt lat="43.65116" lon="6.25955">
        <ele>975.9</ele>
        <time>2023-11-13T10:18:24Z</time>
      </trkpt>
      <trkpt lat="43.6511" lon="6.25967">
        <ele>976.6</ele>
        <time>2023-11-13T10:18:33Z</time>
      </trkpt>
      <trkpt lat="43.65106" lon="6.25979">
        <ele>977.2</ele>
        <time>2023-11-13T10:18:51Z</time>
      </trkpt>
      <trkpt lat="43.65104" lon="6.25992">
        <ele>975.9</ele>
        <time>2023-11-13T10:19:01Z</time>
      </trkpt>
      <trkpt lat="43.65102" lon="6.26004">
        <ele>975</ele>
        <time>2023-11-13T10:19:12Z</time>
      </trkpt>
      <trkpt lat="43.651" lon="6.26018">
        <ele>974.2</ele>
        <time>2023-11-13T10:19:24Z</time>
      </trkpt>
      <trkpt lat="43.651" lon="6.2603">
        <ele>973.4</ele>
        <time>2023-11-13T10:19:37Z</time>
      </trkpt>
      <trkpt lat="43.65097" lon="6.26043">
        <ele>973</ele>
        <time>2023-11-13T10:19:49Z</time>
      </trkpt>
      <trkpt lat="43.65096" lon="6.26056">
        <ele>972.3</ele>
        <time>2023-11-13T10:20:02Z</time>
      </trkpt>
      <trkpt lat="43.65091" lon="6.26067">
        <ele>973</ele>
        <time>2023-11-13T10:20:20Z</time>
      </trkpt>
      <trkpt lat="43.65088" lon="6.26079">
        <ele>973.7</ele>
        <time>2023-11-13T10:20:32Z</time>
      </trkpt>
      <trkpt lat="43.65081" lon="6.26087">
        <ele>974.5</ele>
        <time>2023-11-13T10:20:44Z</time>
      </trkpt>
      <trkpt lat="43.65076" lon="6.26098">
        <ele>975.9</ele>
        <time>2023-11-13T10:21:03Z</time>
      </trkpt>
      <trkpt lat="43.65071" lon="6.26108">
        <ele>977.4</ele>
        <time>2023-11-13T10:21:23Z</time>
      </trkpt>
      <trkpt lat="43.65067" lon="6.2612">
        <ele>978.8</ele>
        <time>2023-11-13T10:21:51Z</time>
      </trkpt>
      <trkpt lat="43.65065" lon="6.26133">
        <ele>979.7</ele>
        <time>2023-11-13T10:22:04Z</time>
      </trkpt>
      <trkpt lat="43.6506" lon="6.26145">
        <ele>981.3</ele>
        <time>2023-11-13T10:22:17Z</time>
      </trkpt>
      <trkpt lat="43.65054" lon="6.26155">
        <ele>983.4</ele>
        <time>2023-11-13T10:22:29Z</time>
      </trkpt>
      <trkpt lat="43.65053" lon="6.26168">
        <ele>985.2</ele>
        <time>2023-11-13T10:22:40Z</time>
      </trkpt>
      <trkpt lat="43.65053" lon="6.26181">
        <ele>985.3</ele>
        <time>2023-11-13T10:23:10Z</time>
      </trkpt>
      <trkpt lat="43.65051" lon="6.26194">
        <ele>987.8</ele>
        <time>2023-11-13T10:23:27Z</time>
      </trkpt>
      <trkpt lat="43.65055" lon="6.26206">
        <ele>992.2</ele>
        <time>2023-11-13T10:24:11Z</time>
      </trkpt>
      <trkpt lat="43.65052" lon="6.26219">
        <ele>993.8</ele>
        <time>2023-11-13T10:24:29Z</time>
      </trkpt>
      <trkpt lat="43.65048" lon="6.26231">
        <ele>994.4</ele>
        <time>2023-11-13T10:24:45Z</time>
      </trkpt>
      <trkpt lat="43.65045" lon="6.26243">
        <ele>993.5</ele>
        <time>2023-11-13T10:24:57Z</time>
      </trkpt>
      <trkpt lat="43.65043" lon="6.26255">
        <ele>992.7</ele>
        <time>2023-11-13T10:25:12Z</time>
      </trkpt>
      <trkpt lat="43.65043" lon="6.26268">
        <ele>993.3</ele>
        <time>2023-11-13T10:25:25Z</time>
      </trkpt>
      <trkpt lat="43.6504" lon="6.26281">
        <ele>993</ele>
        <time>2023-11-13T10:25:41Z</time>
      </trkpt>
      <trkpt lat="43.65039" lon="6.26294">
        <ele>992.6</ele>
        <time>2023-11-13T10:25:57Z</time>
      </trkpt>
      <trkpt lat="43.65036" lon="6.26305">
        <ele>992.6</ele>
        <time>2023-11-13T10:26:04Z</time>
      </trkpt>
      <trkpt lat="43.65037" lon="6.26319">
        <ele>995.3</ele>
        <time>2023-11-13T10:26:12Z</time>
      </trkpt>
      <trkpt lat="43.65035" lon="6.26332">
        <ele>993.5</ele>
        <time>2023-11-13T10:26:21Z</time>
      </trkpt>
      <trkpt lat="43.65034" lon="6.26344">
        <ele>991.5</ele>
        <time>2023-11-13T10:26:31Z</time>
      </trkpt>
      <trkpt lat="43.65028" lon="6.26354">
        <ele>991.6</ele>
        <time>2023-11-13T10:26:49Z</time>
      </trkpt>
      <trkpt lat="43.65025" lon="6.26365">
        <ele>991.7</ele>
        <time>2023-11-13T10:27:11Z</time>
      </trkpt>
      <trkpt lat="43.65025" lon="6.26378">
        <ele>994.2</ele>
        <time>2023-11-13T10:28:22Z</time>
      </trkpt>
      <trkpt lat="43.65021" lon="6.2639">
        <ele>991.8</ele>
        <time>2023-11-13T10:28:37Z</time>
      </trkpt>
      <trkpt lat="43.65024" lon="6.26403">
        <ele>987.7</ele>
        <time>2023-11-13T10:30:05Z</time>
      </trkpt>
      <trkpt lat="43.6502" lon="6.26415">
        <ele>985.8</ele>
        <time>2023-11-13T10:30:24Z</time>
      </trkpt>
      <trkpt lat="43.65018" lon="6.26427">
        <ele>984.5</ele>
        <time>2023-11-13T10:30:37Z</time>
      </trkpt>
      <trkpt lat="43.65016" lon="6.2644">
        <ele>983.4</ele>
        <time>2023-11-13T10:30:49Z</time>
      </trkpt>
      <trkpt lat="43.65012" lon="6.26452">
        <ele>982.8</ele>
        <time>2023-11-13T10:31:00Z</time>
      </trkpt>
      <trkpt lat="43.65012" lon="6.26465">
        <ele>982.6</ele>
        <time>2023-11-13T10:31:11Z</time>
      </trkpt>
      <trkpt lat="43.6501" lon="6.26478">
        <ele>983.7</ele>
        <time>2023-11-13T10:31:26Z</time>
      </trkpt>
      <trkpt lat="43.65005" lon="6.26489">
        <ele>984.2</ele>
        <time>2023-11-13T10:31:43Z</time>
      </trkpt>
      <trkpt lat="43.65001" lon="6.265">
        <ele>984.8</ele>
        <time>2023-11-13T10:31:57Z</time>
      </trkpt>
      <trkpt lat="43.64997" lon="6.26511">
        <ele>985.6</ele>
        <time>2023-11-13T10:32:29Z</time>
      </trkpt>
      <trkpt lat="43.64996" lon="6.26524">
        <ele>985.6</ele>
        <time>2023-11-13T10:32:48Z</time>
      </trkpt>
      <trkpt lat="43.64994" lon="6.26536">
        <ele>988.3</ele>
        <time>2023-11-13T10:33:14Z</time>
      </trkpt>
      <trkpt lat="43.64992" lon="6.26549">
        <ele>990.8</ele>
        <time>2023-11-13T10:33:29Z</time>
      </trkpt>
      <trkpt lat="43.64991" lon="6.26561">
        <ele>991</ele>
        <time>2023-11-13T10:33:39Z</time>
      </trkpt>
      <trkpt lat="43.64986" lon="6.26572">
        <ele>992.5</ele>
        <time>2023-11-13T10:33:52Z</time>
      </trkpt>
      <trkpt lat="43.6498" lon="6.26581">
        <ele>993.8</ele>
        <time>2023-11-13T10:34:15Z</time>
      </trkpt>
      <trkpt lat="43.64971" lon="6.26587">
        <ele>995.1</ele>
        <time>2023-11-13T10:34:36Z</time>
      </trkpt>
      <trkpt lat="43.64965" lon="6.26597">
        <ele>996.6</ele>
        <time>2023-11-13T10:34:49Z</time>
      </trkpt>
      <trkpt lat="43.64959" lon="6.26608">
        <ele>997.7</ele>
        <time>2023-11-13T10:35:03Z</time>
      </trkpt>
      <trkpt lat="43.64955" lon="6.26619">
        <ele>998.1</ele>
        <time>2023-11-13T10:35:13Z</time>
      </trkpt>
      <trkpt lat="43.64953" lon="6.26632">
        <ele>997.6</ele>
        <time>2023-11-13T10:35:26Z</time>
      </trkpt>
      <trkpt lat="43.64947" lon="6.26643">
        <ele>997</ele>
        <time>2023-11-13T10:35:39Z</time>
      </trkpt>
      <trkpt lat="43.64942" lon="6.26653">
        <ele>999</ele>
        <time>2023-11-13T10:36:31Z</time>
      </trkpt>
      <trkpt lat="43.64937" lon="6.26665">
        <ele>1000.4</ele>
        <time>2023-11-13T10:36:50Z</time>
      </trkpt>
      <trkpt lat="43.64932" lon="6.26677">
        <ele>1001.8</ele>
        <time>2023-11-13T10:37:06Z</time>
      </trkpt>
      <trkpt lat="43.64928" lon="6.26688">
        <ele>1003.5</ele>
        <time>2023-11-13T10:37:26Z</time>
      </trkpt>
      <trkpt lat="43.64922" lon="6.26698">
        <ele>1005.1</ele>
        <time>2023-11-13T10:37:41Z</time>
      </trkpt>
      <trkpt lat="43.64921" lon="6.26711">
        <ele>1005.5</ele>
        <time>2023-11-13T10:39:32Z</time>
      </trkpt>
      <trkpt lat="43.6492" lon="6.26723">
        <ele>1005.4</ele>
        <time>2023-11-13T10:39:51Z</time>
      </trkpt>
      <trkpt lat="43.64916" lon="6.26734">
        <ele>1006.8</ele>
        <time>2023-11-13T10:40:09Z</time>
      </trkpt>
      <trkpt lat="43.64913" lon="6.26747">
        <ele>1009.5</ele>
        <time>2023-11-13T10:40:22Z</time>
      </trkpt>
      <trkpt lat="43.6491" lon="6.26759">
        <ele>1009.2</ele>
        <time>2023-11-13T10:40:39Z</time>
      </trkpt>
      <trkpt lat="43.64908" lon="6.26771">
        <ele>1010.1</ele>
        <time>2023-11-13T10:41:02Z</time>
      </trkpt>
      <trkpt lat="43.64906" lon="6.26784">
        <ele>1011.9</ele>
        <time>2023-11-13T10:41:19Z</time>
      </trkpt>
      <trkpt lat="43.64901" lon="6.26794">
        <ele>1015.5</ele>
        <time>2023-11-13T10:41:42Z</time>
      </trkpt>
      <trkpt lat="43.64896" lon="6.26805">
        <ele>1016</ele>
        <time>2023-11-13T10:41:59Z</time>
      </trkpt>
      <trkpt lat="43.64889" lon="6.26814">
        <ele>1017.8</ele>
        <time>2023-11-13T10:42:23Z</time>
      </trkpt>
      <trkpt lat="43.64889" lon="6.26826">
        <ele>1020.1</ele>
        <time>2023-11-13T10:42:56Z</time>
      </trkpt>
      <trkpt lat="43.64885" lon="6.26838">
        <ele>1022.6</ele>
        <time>2023-11-13T10:44:24Z</time>
      </trkpt>
      <trkpt lat="43.64884" lon="6.26851">
        <ele>1021.6</ele>
        <time>2023-11-13T10:45:10Z</time>
      </trkpt>
      <trkpt lat="43.64877" lon="6.2686">
        <ele>1021.1</ele>
        <time>2023-11-13T10:45:32Z</time>
      </trkpt>
      <trkpt lat="43.64875" lon="6.26872">
        <ele>1021.2</ele>
        <time>2023-11-13T10:45:49Z</time>
      </trkpt>
      <trkpt lat="43.64875" lon="6.26885">
        <ele>1023</ele>
        <time>2023-11-13T10:46:33Z</time>
      </trkpt>
      <trkpt lat="43.64867" lon="6.26893">
        <ele>1024</ele>
        <time>2023-11-13T10:47:17Z</time>
      </trkpt>
      <trkpt lat="43.64866" lon="6.26905">
        <ele>1022.3</ele>
        <time>2023-11-13T10:47:38Z</time>
      </trkpt>
      <trkpt lat="43.64861" lon="6.26917">
        <ele>1021</ele>
        <time>2023-11-13T10:47:53Z</time>
      </trkpt>
      <trkpt lat="43.64858" lon="6.26929">
        <ele>1020.4</ele>
        <time>2023-11-13T10:48:08Z</time>
      </trkpt>
      <trkpt lat="43.64852" lon="6.26939">
        <ele>1015.7</ele>
        <time>2023-11-13T10:48:35Z</time>
      </trkpt>
      <trkpt lat="43.64851" lon="6.26952">
        <ele>1017.5</ele>
        <time>2023-11-13T10:48:50Z</time>
      </trkpt>
      <trkpt lat="43.64849" lon="6.26964">
        <ele>1017.5</ele>
        <time>2023-11-13T10:49:01Z</time>
      </trkpt>
      <trkpt lat="43.64842" lon="6.26972">
        <ele>1016.8</ele>
        <time>2023-11-13T10:49:08Z</time>
      </trkpt>
      <trkpt lat="43.64835" lon="6.26979">
        <ele>1017.6</ele>
        <time>2023-11-13T10:49:19Z</time>
      </trkpt>
      <trkpt lat="43.64829" lon="6.26988">
        <ele>1017.5</ele>
        <time>2023-11-13T10:49:29Z</time>
      </trkpt>
      <trkpt lat="43.64826" lon="6.27">
        <ele>1017.7</ele>
        <time>2023-11-13T10:49:43Z</time>
      </trkpt>
      <trkpt lat="43.6482" lon="6.2701">
        <ele>1022.1</ele>
        <time>2023-11-13T10:49:58Z</time>
      </trkpt>
      <trkpt lat="43.64812" lon="6.27021">
        <ele>1018.7</ele>
        <time>2023-11-13T10:50:16Z</time>
      </trkpt>
      <trkpt lat="43.64806" lon="6.27032">
        <ele>1023.3</ele>
        <time>2023-11-13T10:50:26Z</time>
      </trkpt>
      <trkpt lat="43.64799" lon="6.27041">
        <ele>1021.8</ele>
        <time>2023-11-13T10:50:38Z</time>
      </trkpt>
      <trkpt lat="43.64792" lon="6.27049">
        <ele>1020.3</ele>
        <time>2023-11-13T10:50:53Z</time>
      </trkpt>
      <trkpt lat="43.64783" lon="6.27052">
        <ele>1021</ele>
        <time>2023-11-13T10:51:05Z</time>
      </trkpt>
      <trkpt lat="43.64775" lon="6.27059">
        <ele>1022</ele>
        <time>2023-11-13T10:51:17Z</time>
      </trkpt>
      <trkpt lat="43.64767" lon="6.27062">
        <ele>1021.9</ele>
        <time>2023-11-13T10:51:33Z</time>
      </trkpt>
      <trkpt lat="43.64758" lon="6.27064">
        <ele>1021.3</ele>
        <time>2023-11-13T10:51:55Z</time>
      </trkpt>
      <trkpt lat="43.64748" lon="6.27066">
        <ele>1022.8</ele>
        <time>2023-11-13T10:52:11Z</time>
      </trkpt>
      <trkpt lat="43.6474" lon="6.2707">
        <ele>1022.9</ele>
        <time>2023-11-13T10:52:25Z</time>
      </trkpt>
      <trkpt lat="43.64731" lon="6.27076">
        <ele>1026.4</ele>
        <time>2023-11-13T10:52:46Z</time>
      </trkpt>
      <trkpt lat="43.64723" lon="6.2708">
        <ele>1027.1</ele>
        <time>2023-11-13T10:53:03Z</time>
      </trkpt>
      <trkpt lat="43.64715" lon="6.27086">
        <ele>1026.2</ele>
        <time>2023-11-13T10:53:30Z</time>
      </trkpt>
      <trkpt lat="43.64708" lon="6.27095">
        <ele>1021.8</ele>
        <time>2023-11-13T10:55:35Z</time>
      </trkpt>
      <trkpt lat="43.64702" lon="6.27104">
        <ele>1021.1</ele>
        <time>2023-11-13T10:56:22Z</time>
      </trkpt>
      <trkpt lat="43.64696" lon="6.27114">
        <ele>1019</ele>
        <time>2023-11-13T10:56:54Z</time>
      </trkpt>
      <trkpt lat="43.6469" lon="6.27123">
        <ele>1018.4</ele>
        <time>2023-11-13T10:57:12Z</time>
      </trkpt>
      <trkpt lat="43.64685" lon="6.27133">
        <ele>1017.4</ele>
        <time>2023-11-13T10:57:38Z</time>
      </trkpt>
      <trkpt lat="43.64677" lon="6.27142">
        <ele>1017</ele>
        <time>2023-11-13T10:57:51Z</time>
      </trkpt>
      <trkpt lat="43.64669" lon="6.27149">
        <ele>1015.2</ele>
        <time>2023-11-13T10:58:04Z</time>
      </trkpt>
      <trkpt lat="43.64662" lon="6.27158">
        <ele>1018.4</ele>
        <time>2023-11-13T10:58:16Z</time>
      </trkpt>
      <trkpt lat="43.64657" lon="6.27169">
        <ele>1021.7</ele>
        <time>2023-11-13T10:58:34Z</time>
      </trkpt>
      <trkpt lat="43.64649" lon="6.27176">
        <ele>1023.7</ele>
        <time>2023-11-13T10:58:55Z</time>
      </trkpt>
      <trkpt lat="43.64642" lon="6.27184">
        <ele>1027</ele>
        <time>2023-11-13T10:59:32Z</time>
      </trkpt>
      <trkpt lat="43.64635" lon="6.27192">
        <ele>1026.7</ele>
        <time>2023-11-13T10:59:44Z</time>
      </trkpt>
      <trkpt lat="43.64628" lon="6.27199">
        <ele>1028.3</ele>
        <time>2023-11-13T10:59:56Z</time>
      </trkpt>
      <trkpt lat="43.6462" lon="6.27206">
        <ele>1028.9</ele>
        <time>2023-11-13T11:00:09Z</time>
      </trkpt>
      <trkpt lat="43.64611" lon="6.27206">
        <ele>1031.7</ele>
        <time>2023-11-13T11:00:38Z</time>
      </trkpt>
      <trkpt lat="43.64602" lon="6.2721">
        <ele>1033.8</ele>
        <time>2023-11-13T11:00:58Z</time>
      </trkpt>
      <trkpt lat="43.64594" lon="6.27216">
        <ele>1035.3</ele>
        <time>2023-11-13T11:01:25Z</time>
      </trkpt>
      <trkpt lat="43.64585" lon="6.27219">
        <ele>1037.8</ele>
        <time>2023-11-13T11:02:07Z</time>
      </trkpt>
      <trkpt lat="43.64576" lon="6.27218">
        <ele>1036.7</ele>
        <time>2023-11-13T11:02:29Z</time>
      </trkpt>
      <trkpt lat="43.64566" lon="6.27218">
        <ele>1038.2</ele>
        <time>2023-11-13T11:02:48Z</time>
      </trkpt>
      <trkpt lat="43.64557" lon="6.27219">
        <ele>1040.1</ele>
        <time>2023-11-13T11:03:25Z</time>
      </trkpt>
      <trkpt lat="43.64547" lon="6.27222">
        <ele>1042.2</ele>
        <time>2023-11-13T11:06:22Z</time>
      </trkpt>
      <trkpt lat="43.64538" lon="6.27222">
        <ele>1044.4</ele>
        <time>2023-11-13T11:06:39Z</time>
      </trkpt>
      <trkpt lat="43.64529" lon="6.27226">
        <ele>1047.8</ele>
        <time>2023-11-13T11:07:24Z</time>
      </trkpt>
      <trkpt lat="43.6452" lon="6.27228">
        <ele>1051.1</ele>
        <time>2023-11-13T11:07:50Z</time>
      </trkpt>
      <trkpt lat="43.64511" lon="6.27232">
        <ele>1051.9</ele>
        <time>2023-11-13T11:08:08Z</time>
      </trkpt>
      <trkpt lat="43.64502" lon="6.27232">
        <ele>1056.5</ele>
        <time>2023-11-13T11:08:56Z</time>
      </trkpt>
      <trkpt lat="43.64494" lon="6.27224">
        <ele>1059</ele>
        <time>2023-11-13T11:09:31Z</time>
      </trkpt>
      <trkpt lat="43.64485" lon="6.2722">
        <ele>1061.6</ele>
        <time>2023-11-13T11:10:07Z</time>
      </trkpt>
      <trkpt lat="43.64479" lon="6.27229">
        <ele>1065.1</ele>
        <time>2023-11-13T11:10:40Z</time>
      </trkpt>
      <trkpt lat="43.6447" lon="6.27234">
        <ele>1066.2</ele>
        <time>2023-11-13T11:10:53Z</time>
      </trkpt>
      <trkpt lat="43.64465" lon="6.27245">
        <ele>1069.5</ele>
        <time>2023-11-13T11:12:17Z</time>
      </trkpt>
      <trkpt lat="43.6446" lon="6.27256">
        <ele>1069.9</ele>
        <time>2023-11-13T11:15:40Z</time>
      </trkpt>
      <trkpt lat="43.64454" lon="6.27266">
        <ele>1069.1</ele>
        <time>2023-11-13T11:15:55Z</time>
      </trkpt>
      <trkpt lat="43.64459" lon="6.27277">
        <ele>1072.3</ele>
        <time>2023-11-13T11:18:28Z</time>
      </trkpt>
      <trkpt lat="43.64458" lon="6.27289">
        <ele>1070</ele>
        <time>2023-11-13T11:18:41Z</time>
      </trkpt>
      <trkpt lat="43.64454" lon="6.27301">
        <ele>1069.5</ele>
        <time>2023-11-13T11:18:53Z</time>
      </trkpt>
      <trkpt lat="43.64453" lon="6.27314">
        <ele>1068</ele>
        <time>2023-11-13T11:19:05Z</time>
      </trkpt>
      <trkpt lat="43.64446" lon="6.27321">
        <ele>1064.3</ele>
        <time>2023-11-13T11:19:19Z</time>
      </trkpt>
      <trkpt lat="43.64437" lon="6.27327">
        <ele>1066</ele>
        <time>2023-11-13T11:19:40Z</time>
      </trkpt>
      <trkpt lat="43.64446" lon="6.27328">
        <ele>1066.1</ele>
        <time>2023-11-13T11:20:14Z</time>
      </trkpt>
      <trkpt lat="43.64447" lon="6.27341">
        <ele>1065.3</ele>
        <time>2023-11-13T11:40:35Z</time>
      </trkpt>
      <trkpt lat="43.64448" lon="6.27328">
        <ele>1065.4</ele>
        <time>2023-11-13T11:42:45Z</time>
      </trkpt>
      <trkpt lat="43.64443" lon="6.27318">
        <ele>1068.2</ele>
        <time>2023-11-13T12:10:59Z</time>
      </trkpt>
      <trkpt lat="43.64436" lon="6.27328">
        <ele>1068.6</ele>
        <time>2023-11-13T12:20:05Z</time>
      </trkpt>
      <trkpt lat="43.64429" lon="6.27334">
        <ele>1068.2</ele>
        <time>2023-11-13T12:20:27Z</time>
      </trkpt>
      <trkpt lat="43.64422" lon="6.27344">
        <ele>1067.4</ele>
        <time>2023-11-13T12:20:39Z</time>
      </trkpt>
      <trkpt lat="43.64414" lon="6.27351">
        <ele>1065.7</ele>
        <time>2023-11-13T12:21:05Z</time>
      </trkpt>
      <trkpt lat="43.64408" lon="6.27362">
        <ele>1064</ele>
        <time>2023-11-13T12:21:18Z</time>
      </trkpt>
      <trkpt lat="43.64408" lon="6.27374">
        <ele>1061.7</ele>
        <time>2023-11-13T12:21:48Z</time>
      </trkpt>
      <trkpt lat="43.64402" lon="6.27385">
        <ele>1060.6</ele>
        <time>2023-11-13T12:21:59Z</time>
      </trkpt>
      <trkpt lat="43.64396" lon="6.27394">
        <ele>1059.1</ele>
        <time>2023-11-13T12:22:13Z</time>
      </trkpt>
      <trkpt lat="43.64389" lon="6.27403">
        <ele>1058.3</ele>
        <time>2023-11-13T12:22:25Z</time>
      </trkpt>
      <trkpt lat="43.64381" lon="6.27407">
        <ele>1057.5</ele>
        <time>2023-11-13T12:22:35Z</time>
      </trkpt>
      <trkpt lat="43.64371" lon="6.27407">
        <ele>1057.4</ele>
        <time>2023-11-13T12:22:48Z</time>
      </trkpt>
      <trkpt lat="43.64363" lon="6.2741">
        <ele>1057.8</ele>
        <time>2023-11-13T12:23:01Z</time>
      </trkpt>
      <trkpt lat="43.64358" lon="6.27421">
        <ele>1057.4</ele>
        <time>2023-11-13T12:23:18Z</time>
      </trkpt>
      <trkpt lat="43.64352" lon="6.27432">
        <ele>1054.6</ele>
        <time>2023-11-13T12:23:39Z</time>
      </trkpt>
      <trkpt lat="43.64346" lon="6.27441">
        <ele>1052.9</ele>
        <time>2023-11-13T12:24:01Z</time>
      </trkpt>
      <trkpt lat="43.6434" lon="6.27451">
        <ele>1051.7</ele>
        <time>2023-11-13T12:24:16Z</time>
      </trkpt>
      <trkpt lat="43.64333" lon="6.27461">
        <ele>1050.5</ele>
        <time>2023-11-13T12:24:26Z</time>
      </trkpt>
      <trkpt lat="43.64326" lon="6.2747">
        <ele>1049.6</ele>
        <time>2023-11-13T12:24:36Z</time>
      </trkpt>
      <trkpt lat="43.64317" lon="6.27475">
        <ele>1049</ele>
        <time>2023-11-13T12:24:45Z</time>
      </trkpt>
      <trkpt lat="43.6431" lon="6.27483">
        <ele>1049</ele>
        <time>2023-11-13T12:24:59Z</time>
      </trkpt>
      <trkpt lat="43.64304" lon="6.27491">
        <ele>1049</ele>
        <time>2023-11-13T12:25:09Z</time>
      </trkpt>
      <trkpt lat="43.64296" lon="6.27499">
        <ele>1049.1</ele>
        <time>2023-11-13T12:25:23Z</time>
      </trkpt>
      <trkpt lat="43.6429" lon="6.27508">
        <ele>1048.7</ele>
        <time>2023-11-13T12:25:40Z</time>
      </trkpt>
      <trkpt lat="43.64286" lon="6.27519">
        <ele>1047.9</ele>
        <time>2023-11-13T12:25:57Z</time>
      </trkpt>
      <trkpt lat="43.64287" lon="6.27532">
        <ele>1047.6</ele>
        <time>2023-11-13T12:27:14Z</time>
      </trkpt>
      <trkpt lat="43.6428" lon="6.27541">
        <ele>1045.4</ele>
        <time>2023-11-13T12:27:36Z</time>
      </trkpt>
      <trkpt lat="43.64275" lon="6.27552">
        <ele>1046.8</ele>
        <time>2023-11-13T12:27:52Z</time>
      </trkpt>
      <trkpt lat="43.64269" lon="6.27563">
        <ele>1045.1</ele>
        <time>2023-11-13T12:28:04Z</time>
      </trkpt>
      <trkpt lat="43.6427" lon="6.27576">
        <ele>1043.6</ele>
        <time>2023-11-13T12:28:19Z</time>
      </trkpt>
      <trkpt lat="43.64268" lon="6.27589">
        <ele>1040.9</ele>
        <time>2023-11-13T12:28:32Z</time>
      </trkpt>
      <trkpt lat="43.64262" lon="6.27597">
        <ele>1039.8</ele>
        <time>2023-11-13T12:28:44Z</time>
      </trkpt>
      <trkpt lat="43.64255" lon="6.27606">
        <ele>1038.3</ele>
        <time>2023-11-13T12:28:56Z</time>
      </trkpt>
      <trkpt lat="43.64248" lon="6.27614">
        <ele>1036.8</ele>
        <time>2023-11-13T12:29:10Z</time>
      </trkpt>
      <trkpt lat="43.64242" lon="6.27623">
        <ele>1035.3</ele>
        <time>2023-11-13T12:29:20Z</time>
      </trkpt>
      <trkpt lat="43.64238" lon="6.27634">
        <ele>1034.4</ele>
        <time>2023-11-13T12:29:41Z</time>
      </trkpt>
      <trkpt lat="43.64232" lon="6.27645">
        <ele>1033.8</ele>
        <time>2023-11-13T12:29:50Z</time>
      </trkpt>
      <trkpt lat="43.64227" lon="6.27656">
        <ele>1032.7</ele>
        <time>2023-11-13T12:30:03Z</time>
      </trkpt>
      <trkpt lat="43.64219" lon="6.27662">
        <ele>1032</ele>
        <time>2023-11-13T12:30:13Z</time>
      </trkpt>
      <trkpt lat="43.6421" lon="6.27667">
        <ele>1032</ele>
        <time>2023-11-13T12:30:24Z</time>
      </trkpt>
      <trkpt lat="43.64203" lon="6.27676">
        <ele>1032</ele>
        <time>2023-11-13T12:30:32Z</time>
      </trkpt>
      <trkpt lat="43.64196" lon="6.27684">
        <ele>1032.6</ele>
        <time>2023-11-13T12:30:41Z</time>
      </trkpt>
      <trkpt lat="43.64193" lon="6.27696">
        <ele>1033</ele>
        <time>2023-11-13T12:30:50Z</time>
      </trkpt>
      <trkpt lat="43.64189" lon="6.27708">
        <ele>1033.4</ele>
        <time>2023-11-13T12:30:59Z</time>
      </trkpt>
      <trkpt lat="43.64182" lon="6.27719">
        <ele>1034.4</ele>
        <time>2023-11-13T12:31:11Z</time>
      </trkpt>
      <trkpt lat="43.64175" lon="6.27727">
        <ele>1035.1</ele>
        <time>2023-11-13T12:31:21Z</time>
      </trkpt>
      <trkpt lat="43.64168" lon="6.27735">
        <ele>1035.6</ele>
        <time>2023-11-13T12:31:31Z</time>
      </trkpt>
      <trkpt lat="43.64162" lon="6.27745">
        <ele>1036</ele>
        <time>2023-11-13T12:31:40Z</time>
      </trkpt>
      <trkpt lat="43.64157" lon="6.27755">
        <ele>1036.2</ele>
        <time>2023-11-13T12:31:52Z</time>
      </trkpt>
      <trkpt lat="43.64151" lon="6.27766">
        <ele>1037.2</ele>
        <time>2023-11-13T12:32:02Z</time>
      </trkpt>
      <trkpt lat="43.64147" lon="6.27777">
        <ele>1038.8</ele>
        <time>2023-11-13T12:32:12Z</time>
      </trkpt>
      <trkpt lat="43.6414" lon="6.27785">
        <ele>1040.5</ele>
        <time>2023-11-13T12:32:25Z</time>
      </trkpt>
      <trkpt lat="43.64135" lon="6.27796">
        <ele>1042.4</ele>
        <time>2023-11-13T12:32:39Z</time>
      </trkpt>
      <trkpt lat="43.64127" lon="6.27804">
        <ele>1042.9</ele>
        <time>2023-11-13T12:32:50Z</time>
      </trkpt>
      <trkpt lat="43.6412" lon="6.27812">
        <ele>1043.4</ele>
        <time>2023-11-13T12:33:00Z</time>
      </trkpt>
      <trkpt lat="43.64112" lon="6.2782">
        <ele>1043.7</ele>
        <time>2023-11-13T12:33:09Z</time>
      </trkpt>
      <trkpt lat="43.64104" lon="6.27825">
        <ele>1043.4</ele>
        <time>2023-11-13T12:33:19Z</time>
      </trkpt>
      <trkpt lat="43.64095" lon="6.27829">
        <ele>1042</ele>
        <time>2023-11-13T12:34:04Z</time>
      </trkpt>
      <trkpt lat="43.64089" lon="6.27839">
        <ele>1043</ele>
        <time>2023-11-13T12:35:41Z</time>
      </trkpt>
      <trkpt lat="43.64083" lon="6.27849">
        <ele>1043.2</ele>
        <time>2023-11-13T12:35:59Z</time>
      </trkpt>
      <trkpt lat="43.64078" lon="6.2786">
        <ele>1043.9</ele>
        <time>2023-11-13T12:36:11Z</time>
      </trkpt>
      <trkpt lat="43.6407" lon="6.27865">
        <ele>1045.7</ele>
        <time>2023-11-13T12:36:26Z</time>
      </trkpt>
      <trkpt lat="43.64063" lon="6.27875">
        <ele>1046.4</ele>
        <time>2023-11-13T12:36:40Z</time>
      </trkpt>
      <trkpt lat="43.64056" lon="6.27882">
        <ele>1047.2</ele>
        <time>2023-11-13T12:36:56Z</time>
      </trkpt>
      <trkpt lat="43.64051" lon="6.27893">
        <ele>1047.6</ele>
        <time>2023-11-13T12:37:08Z</time>
      </trkpt>
      <trkpt lat="43.64045" lon="6.27902">
        <ele>1048.5</ele>
        <time>2023-11-13T12:37:21Z</time>
      </trkpt>
      <trkpt lat="43.64044" lon="6.27914">
        <ele>1050</ele>
        <time>2023-11-13T12:37:37Z</time>
      </trkpt>
      <trkpt lat="43.6404" lon="6.27926">
        <ele>1052.8</ele>
        <time>2023-11-13T12:38:03Z</time>
      </trkpt>
      <trkpt lat="43.64038" lon="6.27938">
        <ele>1054</ele>
        <time>2023-11-13T12:38:17Z</time>
      </trkpt>
      <trkpt lat="43.64033" lon="6.27949">
        <ele>1055.5</ele>
        <time>2023-11-13T12:38:28Z</time>
      </trkpt>
      <trkpt lat="43.64026" lon="6.27957">
        <ele>1058.3</ele>
        <time>2023-11-13T12:38:45Z</time>
      </trkpt>
      <trkpt lat="43.64018" lon="6.27964">
        <ele>1061.1</ele>
        <time>2023-11-13T12:39:12Z</time>
      </trkpt>
      <trkpt lat="43.64011" lon="6.27973">
        <ele>1063.4</ele>
        <time>2023-11-13T12:40:18Z</time>
      </trkpt>
      <trkpt lat="43.64004" lon="6.27981">
        <ele>1065.7</ele>
        <time>2023-11-13T12:40:44Z</time>
      </trkpt>
      <trkpt lat="43.63997" lon="6.27988">
        <ele>1067.7</ele>
        <time>2023-11-13T12:41:08Z</time>
      </trkpt>
      <trkpt lat="43.64009" lon="6.28001">
        <ele>1070</ele>
        <time>2023-11-13T12:42:25Z</time>
      </trkpt>
      <trkpt lat="43.63997" lon="6.27995">
        <ele>1069.7</ele>
        <time>2023-11-13T12:42:51Z</time>
      </trkpt>
      <trkpt lat="43.63988" lon="6.27989">
        <ele>1069.2</ele>
        <time>2023-11-13T12:47:16Z</time>
      </trkpt>
      <trkpt lat="43.63979" lon="6.27989">
        <ele>1067.2</ele>
        <time>2023-11-13T12:48:59Z</time>
      </trkpt>
      <trkpt lat="43.63969" lon="6.27992">
        <ele>1065.8</ele>
        <time>2023-11-13T12:49:18Z</time>
      </trkpt>
      <trkpt lat="43.6396" lon="6.27991">
        <ele>1064.3</ele>
        <time>2023-11-13T12:49:42Z</time>
      </trkpt>
      <trkpt lat="43.63952" lon="6.27987">
        <ele>1065.2</ele>
        <time>2023-11-13T12:50:13Z</time>
      </trkpt>
      <trkpt lat="43.63942" lon="6.27988">
        <ele>1064.3</ele>
        <time>2023-11-13T12:50:29Z</time>
      </trkpt>
      <trkpt lat="43.63933" lon="6.2799">
        <ele>1061.7</ele>
        <time>2023-11-13T12:50:46Z</time>
      </trkpt>
      <trkpt lat="43.63924" lon="6.27984">
        <ele>1059.6</ele>
        <time>2023-11-13T12:51:10Z</time>
      </trkpt>
      <trkpt lat="43.63916" lon="6.27981">
        <ele>1054.2</ele>
        <time>2023-11-13T12:51:27Z</time>
      </trkpt>
      <trkpt lat="43.63906" lon="6.27982">
        <ele>1057.8</ele>
        <time>2023-11-13T12:51:37Z</time>
      </trkpt>
      <trkpt lat="43.63897" lon="6.27986">
        <ele>1058.1</ele>
        <time>2023-11-13T12:51:49Z</time>
      </trkpt>
      <trkpt lat="43.63888" lon="6.27985">
        <ele>1057.2</ele>
        <time>2023-11-13T12:52:03Z</time>
      </trkpt>
      <trkpt lat="43.6388" lon="6.27992">
        <ele>1058.1</ele>
        <time>2023-11-13T12:52:16Z</time>
      </trkpt>
      <trkpt lat="43.63875" lon="6.28001">
        <ele>1059.6</ele>
        <time>2023-11-13T12:52:35Z</time>
      </trkpt>
      <trkpt lat="43.6387" lon="6.28013">
        <ele>1060.4</ele>
        <time>2023-11-13T12:52:56Z</time>
      </trkpt>
      <trkpt lat="43.63867" lon="6.28025">
        <ele>1057.9</ele>
        <time>2023-11-13T12:53:31Z</time>
      </trkpt>
      <trkpt lat="43.63866" lon="6.28038">
        <ele>1056.4</ele>
        <time>2023-11-13T12:53:45Z</time>
      </trkpt>
      <trkpt lat="43.63863" lon="6.2805">
        <ele>1054.7</ele>
        <time>2023-11-13T12:53:58Z</time>
      </trkpt>
      <trkpt lat="43.6386" lon="6.28062">
        <ele>1053.1</ele>
        <time>2023-11-13T12:54:11Z</time>
      </trkpt>
      <trkpt lat="43.63858" lon="6.28075">
        <ele>1050.9</ele>
        <time>2023-11-13T12:54:32Z</time>
      </trkpt>
      <trkpt lat="43.63854" lon="6.28087">
        <ele>1048.5</ele>
        <time>2023-11-13T12:55:09Z</time>
      </trkpt>
      <trkpt lat="43.63845" lon="6.28092">
        <ele>1046.5</ele>
        <time>2023-11-13T12:55:30Z</time>
      </trkpt>
      <trkpt lat="43.63837" lon="6.28099">
        <ele>1044.7</ele>
        <time>2023-11-13T12:55:42Z</time>
      </trkpt>
      <trkpt lat="43.6383" lon="6.28107">
        <ele>1041.7</ele>
        <time>2023-11-13T12:56:11Z</time>
      </trkpt>
      <trkpt lat="43.63822" lon="6.28114">
        <ele>1040.2</ele>
        <time>2023-11-13T12:56:25Z</time>
      </trkpt>
      <trkpt lat="43.63814" lon="6.28116">
        <ele>1038.6</ele>
        <time>2023-11-13T12:56:43Z</time>
      </trkpt>
      <trkpt lat="43.63805" lon="6.28122">
        <ele>1036.7</ele>
        <time>2023-11-13T12:57:00Z</time>
      </trkpt>
      <trkpt lat="43.63796" lon="6.28125">
        <ele>1034.3</ele>
        <time>2023-11-13T12:58:00Z</time>
      </trkpt>
      <trkpt lat="43.6379" lon="6.28135">
        <ele>1033.3</ele>
        <time>2023-11-13T12:58:14Z</time>
      </trkpt>
      <trkpt lat="43.63784" lon="6.28145">
        <ele>1030.3</ele>
        <time>2023-11-13T12:58:38Z</time>
      </trkpt>
      <trkpt lat="43.63774" lon="6.28146">
        <ele>1029.5</ele>
        <time>2023-11-13T12:58:50Z</time>
      </trkpt>
      <trkpt lat="43.63765" lon="6.28146">
        <ele>1028.3</ele>
        <time>2023-11-13T12:59:15Z</time>
      </trkpt>
      <trkpt lat="43.63756" lon="6.28146">
        <ele>1027.4</ele>
        <time>2023-11-13T12:59:27Z</time>
      </trkpt>
      <trkpt lat="43.63747" lon="6.28148">
        <ele>1025.3</ele>
        <time>2023-11-13T12:59:49Z</time>
      </trkpt>
      <trkpt lat="43.63738" lon="6.28153">
        <ele>1025.4</ele>
        <time>2023-11-13T13:00:11Z</time>
      </trkpt>
      <trkpt lat="43.63729" lon="6.28152">
        <ele>1023.9</ele>
        <time>2023-11-13T13:00:23Z</time>
      </trkpt>
      <trkpt lat="43.6372" lon="6.28156">
        <ele>1021.5</ele>
        <time>2023-11-13T13:00:46Z</time>
      </trkpt>
      <trkpt lat="43.63711" lon="6.28158">
        <ele>1019.3</ele>
        <time>2023-11-13T13:01:20Z</time>
      </trkpt>
      <trkpt lat="43.63702" lon="6.28157">
        <ele>1018.7</ele>
        <time>2023-11-13T13:01:36Z</time>
      </trkpt>
      <trkpt lat="43.63693" lon="6.2816">
        <ele>1018.5</ele>
        <time>2023-11-13T13:03:34Z</time>
      </trkpt>
      <trkpt lat="43.63683" lon="6.28164">
        <ele>1017.6</ele>
        <time>2023-11-13T13:03:52Z</time>
      </trkpt>
      <trkpt lat="43.63673" lon="6.28165">
        <ele>1017</ele>
        <time>2023-11-13T13:04:06Z</time>
      </trkpt>
      <trkpt lat="43.63664" lon="6.28171">
        <ele>1016.5</ele>
        <time>2023-11-13T13:04:18Z</time>
      </trkpt>
      <trkpt lat="43.63655" lon="6.28174">
        <ele>1016.1</ele>
        <time>2023-11-13T13:04:26Z</time>
      </trkpt>
      <trkpt lat="43.63646" lon="6.28176">
        <ele>1015.7</ele>
        <time>2023-11-13T13:04:37Z</time>
      </trkpt>
      <trkpt lat="43.63638" lon="6.28184">
        <ele>1014.7</ele>
        <time>2023-11-13T13:04:51Z</time>
      </trkpt>
      <trkpt lat="43.6363" lon="6.28188">
        <ele>1013.9</ele>
        <time>2023-11-13T13:05:02Z</time>
      </trkpt>
      <trkpt lat="43.63621" lon="6.28189">
        <ele>1013.1</ele>
        <time>2023-11-13T13:05:11Z</time>
      </trkpt>
      <trkpt lat="43.63612" lon="6.28185">
        <ele>1012.7</ele>
        <time>2023-11-13T13:05:21Z</time>
      </trkpt>
      <trkpt lat="43.63603" lon="6.28181">
        <ele>1011.7</ele>
        <time>2023-11-13T13:05:33Z</time>
      </trkpt>
      <trkpt lat="43.63594" lon="6.28185">
        <ele>1011.2</ele>
        <time>2023-11-13T13:05:44Z</time>
      </trkpt>
      <trkpt lat="43.63586" lon="6.28193">
        <ele>1010.2</ele>
        <time>2023-11-13T13:05:57Z</time>
      </trkpt>
      <trkpt lat="43.63581" lon="6.28204">
        <ele>1009.3</ele>
        <time>2023-11-13T13:06:09Z</time>
      </trkpt>
      <trkpt lat="43.63575" lon="6.28212">
        <ele>1008.5</ele>
        <time>2023-11-13T13:06:18Z</time>
      </trkpt>
      <trkpt lat="43.63568" lon="6.28221">
        <ele>1007.8</ele>
        <time>2023-11-13T13:06:33Z</time>
      </trkpt>
      <trkpt lat="43.63559" lon="6.28223">
        <ele>1006.7</ele>
        <time>2023-11-13T13:07:09Z</time>
      </trkpt>
      <trkpt lat="43.63553" lon="6.28234">
        <ele>1006.2</ele>
        <time>2023-11-13T13:07:25Z</time>
      </trkpt>
      <trkpt lat="43.63547" lon="6.28244">
        <ele>1005.7</ele>
        <time>2023-11-13T13:07:35Z</time>
      </trkpt>
      <trkpt lat="43.63543" lon="6.28256">
        <ele>1005.6</ele>
        <time>2023-11-13T13:07:44Z</time>
      </trkpt>
      <trkpt lat="43.63543" lon="6.2827">
        <ele>1005.4</ele>
        <time>2023-11-13T13:07:54Z</time>
      </trkpt>
      <trkpt lat="43.63545" lon="6.28283">
        <ele>1005.6</ele>
        <time>2023-11-13T13:08:04Z</time>
      </trkpt>
      <trkpt lat="43.63543" lon="6.28296">
        <ele>1005.7</ele>
        <time>2023-11-13T13:08:13Z</time>
      </trkpt>
      <trkpt lat="43.6354" lon="6.28309">
        <ele>1005.8</ele>
        <time>2023-11-13T13:08:22Z</time>
      </trkpt>
      <trkpt lat="43.63535" lon="6.2832">
        <ele>1005.7</ele>
        <time>2023-11-13T13:08:30Z</time>
      </trkpt>
      <trkpt lat="43.63529" lon="6.2833">
        <ele>1005.6</ele>
        <time>2023-11-13T13:08:37Z</time>
      </trkpt>
      <trkpt lat="43.63525" lon="6.28341">
        <ele>1006.6</ele>
        <time>2023-11-13T13:09:12Z</time>
      </trkpt>
      <trkpt lat="43.63516" lon="6.28345">
        <ele>1006.1</ele>
        <time>2023-11-13T13:09:29Z</time>
      </trkpt>
      <trkpt lat="43.63508" lon="6.28351">
        <ele>1005.9</ele>
        <time>2023-11-13T13:09:44Z</time>
      </trkpt>
      <trkpt lat="43.635" lon="6.28358">
        <ele>1005.4</ele>
        <time>2023-11-13T13:09:52Z</time>
      </trkpt>
      <trkpt lat="43.63494" lon="6.28368">
        <ele>1004.9</ele>
        <time>2023-11-13T13:10:04Z</time>
      </trkpt>
      <trkpt lat="43.63487" lon="6.28376">
        <ele>1005</ele>
        <time>2023-11-13T13:10:18Z</time>
      </trkpt>
      <trkpt lat="43.63477" lon="6.28377">
        <ele>1004.8</ele>
        <time>2023-11-13T13:10:31Z</time>
      </trkpt>
      <trkpt lat="43.63467" lon="6.28378">
        <ele>1004.6</ele>
        <time>2023-11-13T13:10:41Z</time>
      </trkpt>
      <trkpt lat="43.6346" lon="6.28387">
        <ele>1003.4</ele>
        <time>2023-11-13T13:10:56Z</time>
      </trkpt>
      <trkpt lat="43.63451" lon="6.28395">
        <ele>1002.9</ele>
        <time>2023-11-13T13:11:06Z</time>
      </trkpt>
      <trkpt lat="43.63444" lon="6.28402">
        <ele>1003.4</ele>
        <time>2023-11-13T13:11:14Z</time>
      </trkpt>
      <trkpt lat="43.63436" lon="6.28411">
        <ele>1002.5</ele>
        <time>2023-11-13T13:11:24Z</time>
      </trkpt>
      <trkpt lat="43.63433" lon="6.28423">
        <ele>1000.4</ele>
        <time>2023-11-13T13:11:34Z</time>
      </trkpt>
      <trkpt lat="43.63429" lon="6.28434">
        <ele>1000.3</ele>
        <time>2023-11-13T13:11:44Z</time>
      </trkpt>
      <trkpt lat="43.63428" lon="6.28447">
        <ele>1001.3</ele>
        <time>2023-11-13T13:11:56Z</time>
      </trkpt>
      <trkpt lat="43.63431" lon="6.28459">
        <ele>1002.3</ele>
        <time>2023-11-13T13:12:06Z</time>
      </trkpt>
      <trkpt lat="43.63433" lon="6.28472">
        <ele>1002.9</ele>
        <time>2023-11-13T13:12:16Z</time>
      </trkpt>
      <trkpt lat="43.6344" lon="6.2848">
        <ele>1003.7</ele>
        <time>2023-11-13T13:12:27Z</time>
      </trkpt>
      <trkpt lat="43.63448" lon="6.28487">
        <ele>1003.9</ele>
        <time>2023-11-13T13:12:38Z</time>
      </trkpt>
      <trkpt lat="43.63453" lon="6.28498">
        <ele>1004.8</ele>
        <time>2023-11-13T13:12:49Z</time>
      </trkpt>
      <trkpt lat="43.63458" lon="6.28509">
        <ele>1005.8</ele>
        <time>2023-11-13T13:12:59Z</time>
      </trkpt>
      <trkpt lat="43.63459" lon="6.28522">
        <ele>1006</ele>
        <time>2023-11-13T13:13:11Z</time>
      </trkpt>
      <trkpt lat="43.63457" lon="6.28535">
        <ele>1003.9</ele>
        <time>2023-11-13T13:13:27Z</time>
      </trkpt>
      <trkpt lat="43.63452" lon="6.28546">
        <ele>1003.7</ele>
        <time>2023-11-13T13:13:39Z</time>
      </trkpt>
      <trkpt lat="43.63448" lon="6.28557">
        <ele>1003.5</ele>
        <time>2023-11-13T13:13:59Z</time>
      </trkpt>
      <trkpt lat="43.63446" lon="6.2857">
        <ele>1002.4</ele>
        <time>2023-11-13T13:14:13Z</time>
      </trkpt>
      <trkpt lat="43.63438" lon="6.28578">
        <ele>1001.7</ele>
        <time>2023-11-13T13:14:24Z</time>
      </trkpt>
      <trkpt lat="43.63431" lon="6.28587">
        <ele>1000.7</ele>
        <time>2023-11-13T13:14:45Z</time>
      </trkpt>
      <trkpt lat="43.63424" lon="6.28596">
        <ele>999.6</ele>
        <time>2023-11-13T13:14:58Z</time>
      </trkpt>
      <trkpt lat="43.63416" lon="6.28599">
        <ele>998.3</ele>
        <time>2023-11-13T13:15:14Z</time>
      </trkpt>
      <trkpt lat="43.63408" lon="6.28609">
        <ele>998.4</ele>
        <time>2023-11-13T13:15:24Z</time>
      </trkpt>
      <trkpt lat="43.634" lon="6.28615">
        <ele>997.9</ele>
        <time>2023-11-13T13:15:34Z</time>
      </trkpt>
      <trkpt lat="43.63399" lon="6.28628">
        <ele>998</ele>
        <time>2023-11-13T13:16:27Z</time>
      </trkpt>
      <trkpt lat="43.6339" lon="6.28625">
        <ele>998.4</ele>
        <time>2023-11-13T13:16:48Z</time>
      </trkpt>
      <trkpt lat="43.63382" lon="6.28631">
        <ele>997.5</ele>
        <time>2023-11-13T13:17:01Z</time>
      </trkpt>
      <trkpt lat="43.63377" lon="6.28642">
        <ele>998.8</ele>
        <time>2023-11-13T13:17:11Z</time>
      </trkpt>
      <trkpt lat="43.63376" lon="6.28655">
        <ele>997.4</ele>
        <time>2023-11-13T13:17:20Z</time>
      </trkpt>
      <trkpt lat="43.6337" lon="6.28665">
        <ele>996.8</ele>
        <time>2023-11-13T13:17:28Z</time>
      </trkpt>
      <trkpt lat="43.63363" lon="6.28673">
        <ele>996.1</ele>
        <time>2023-11-13T13:17:37Z</time>
      </trkpt>
      <trkpt lat="43.63355" lon="6.2868">
        <ele>995.8</ele>
        <time>2023-11-13T13:17:45Z</time>
      </trkpt>
      <trkpt lat="43.63354" lon="6.28694">
        <ele>995.3</ele>
        <time>2023-11-13T13:17:54Z</time>
      </trkpt>
      <trkpt lat="43.63359" lon="6.28705">
        <ele>995</ele>
        <time>2023-11-13T13:18:02Z</time>
      </trkpt>
      <trkpt lat="43.63364" lon="6.28716">
        <ele>994.9</ele>
        <time>2023-11-13T13:18:11Z</time>
      </trkpt>
      <trkpt lat="43.63366" lon="6.28728">
        <ele>995</ele>
        <time>2023-11-13T13:18:19Z</time>
      </trkpt>
      <trkpt lat="43.63368" lon="6.28741">
        <ele>995.2</ele>
        <time>2023-11-13T13:18:30Z</time>
      </trkpt>
      <trkpt lat="43.63372" lon="6.28752">
        <ele>994.9</ele>
        <time>2023-11-13T13:18:41Z</time>
      </trkpt>
      <trkpt lat="43.6337" lon="6.28765">
        <ele>994.7</ele>
        <time>2023-11-13T13:18:49Z</time>
      </trkpt>
      <trkpt lat="43.63367" lon="6.28778">
        <ele>995.1</ele>
        <time>2023-11-13T13:19:00Z</time>
      </trkpt>
      <trkpt lat="43.6336" lon="6.28786">
        <ele>995</ele>
        <time>2023-11-13T13:19:12Z</time>
      </trkpt>
      <trkpt lat="43.63355" lon="6.28797">
        <ele>995.1</ele>
        <time>2023-11-13T13:19:22Z</time>
      </trkpt>
      <trkpt lat="43.63355" lon="6.28811">
        <ele>994.7</ele>
        <time>2023-11-13T13:19:30Z</time>
      </trkpt>
      <trkpt lat="43.63347" lon="6.28818">
        <ele>994.5</ele>
        <time>2023-11-13T13:19:42Z</time>
      </trkpt>
      <trkpt lat="43.63342" lon="6.28828">
        <ele>994</ele>
        <time>2023-11-13T13:21:19Z</time>
      </trkpt>
      <trkpt lat="43.63333" lon="6.2883">
        <ele>993.2</ele>
        <time>2023-11-13T13:22:40Z</time>
      </trkpt>
      <trkpt lat="43.63329" lon="6.28843">
        <ele>992.7</ele>
        <time>2023-11-13T13:23:28Z</time>
      </trkpt>
      <trkpt lat="43.63324" lon="6.28854">
        <ele>991.9</ele>
        <time>2023-11-13T13:23:41Z</time>
      </trkpt>
      <trkpt lat="43.63317" lon="6.28864">
        <ele>991</ele>
        <time>2023-11-13T13:23:50Z</time>
      </trkpt>
      <trkpt lat="43.63312" lon="6.28874">
        <ele>990.5</ele>
        <time>2023-11-13T13:24:00Z</time>
      </trkpt>
      <trkpt lat="43.63308" lon="6.28886">
        <ele>989.5</ele>
        <time>2023-11-13T13:24:11Z</time>
      </trkpt>
      <trkpt lat="43.63309" lon="6.28899">
        <ele>988.4</ele>
        <time>2023-11-13T13:24:24Z</time>
      </trkpt>
      <trkpt lat="43.63307" lon="6.28912">
        <ele>987.2</ele>
        <time>2023-11-13T13:24:36Z</time>
      </trkpt>
      <trkpt lat="43.63305" lon="6.28925">
        <ele>986.1</ele>
        <time>2023-11-13T13:25:12Z</time>
      </trkpt>
      <trkpt lat="43.6331" lon="6.28936">
        <ele>985</ele>
        <time>2023-11-13T13:25:34Z</time>
      </trkpt>
      <trkpt lat="43.63311" lon="6.28949">
        <ele>984</ele>
        <time>2023-11-13T13:25:46Z</time>
      </trkpt>
      <trkpt lat="43.63312" lon="6.28962">
        <ele>982.5</ele>
        <time>2023-11-13T13:26:01Z</time>
      </trkpt>
      <trkpt lat="43.63315" lon="6.28974">
        <ele>981.4</ele>
        <time>2023-11-13T13:26:12Z</time>
      </trkpt>
      <trkpt lat="43.63318" lon="6.28987">
        <ele>978.9</ele>
        <time>2023-11-13T13:26:35Z</time>
      </trkpt>
      <trkpt lat="43.63322" lon="6.28998">
        <ele>977.6</ele>
        <time>2023-11-13T13:26:50Z</time>
      </trkpt>
      <trkpt lat="43.6332" lon="6.29011">
        <ele>973.4</ele>
        <time>2023-11-13T13:27:07Z</time>
      </trkpt>
      <trkpt lat="43.63313" lon="6.29021">
        <ele>975.3</ele>
        <time>2023-11-13T13:27:17Z</time>
      </trkpt>
      <trkpt lat="43.63309" lon="6.29032">
        <ele>974.3</ele>
        <time>2023-11-13T13:27:30Z</time>
      </trkpt>
      <trkpt lat="43.63311" lon="6.29045">
        <ele>973.2</ele>
        <time>2023-11-13T13:27:39Z</time>
      </trkpt>
      <trkpt lat="43.63311" lon="6.29059">
        <ele>972.2</ele>
        <time>2023-11-13T13:27:49Z</time>
      </trkpt>
      <trkpt lat="43.63305" lon="6.2907">
        <ele>971</ele>
        <time>2023-11-13T13:28:00Z</time>
      </trkpt>
      <trkpt lat="43.633" lon="6.29081">
        <ele>969.6</ele>
        <time>2023-11-13T13:28:10Z</time>
      </trkpt>
      <trkpt lat="43.63301" lon="6.29094">
        <ele>968.4</ele>
        <time>2023-11-13T13:28:19Z</time>
      </trkpt>
      <trkpt lat="43.633" lon="6.29107">
        <ele>967.5</ele>
        <time>2023-11-13T13:28:28Z</time>
      </trkpt>
      <trkpt lat="43.63303" lon="6.29119">
        <ele>965.5</ele>
        <time>2023-11-13T13:30:15Z</time>
      </trkpt>
      <trkpt lat="43.63311" lon="6.29126">
        <ele>964.4</ele>
        <time>2023-11-13T13:30:27Z</time>
      </trkpt>
      <trkpt lat="43.63319" lon="6.29133">
        <ele>963.5</ele>
        <time>2023-11-13T13:30:41Z</time>
      </trkpt>
      <trkpt lat="43.63325" lon="6.29143">
        <ele>962.1</ele>
        <time>2023-11-13T13:31:01Z</time>
      </trkpt>
      <trkpt lat="43.63331" lon="6.29152">
        <ele>960.7</ele>
        <time>2023-11-13T13:31:12Z</time>
      </trkpt>
      <trkpt lat="43.63337" lon="6.29162">
        <ele>958.8</ele>
        <time>2023-11-13T13:31:25Z</time>
      </trkpt>
      <trkpt lat="43.63344" lon="6.29171">
        <ele>957</ele>
        <time>2023-11-13T13:31:44Z</time>
      </trkpt>
      <trkpt lat="43.63352" lon="6.29177">
        <ele>955.2</ele>
        <time>2023-11-13T13:32:13Z</time>
      </trkpt>
      <trkpt lat="43.6336" lon="6.29185">
        <ele>953.5</ele>
        <time>2023-11-13T13:32:41Z</time>
      </trkpt>
      <trkpt lat="43.63368" lon="6.29189">
        <ele>951.2</ele>
        <time>2023-11-13T13:32:58Z</time>
      </trkpt>
      <trkpt lat="43.63377" lon="6.29193">
        <ele>950.9</ele>
        <time>2023-11-13T13:33:10Z</time>
      </trkpt>
      <trkpt lat="43.63386" lon="6.29198">
        <ele>948.5</ele>
        <time>2023-11-13T13:33:30Z</time>
      </trkpt>
      <trkpt lat="43.63393" lon="6.29208">
        <ele>945.1</ele>
        <time>2023-11-13T13:34:20Z</time>
      </trkpt>
      <trkpt lat="43.63402" lon="6.29212">
        <ele>946.1</ele>
        <time>2023-11-13T13:34:30Z</time>
      </trkpt>
      <trkpt lat="43.63412" lon="6.29214">
        <ele>944.2</ele>
        <time>2023-11-13T13:34:41Z</time>
      </trkpt>
      <trkpt lat="43.63422" lon="6.29211">
        <ele>944.1</ele>
        <time>2023-11-13T13:34:51Z</time>
      </trkpt>
      <trkpt lat="43.63431" lon="6.29211">
        <ele>940.9</ele>
        <time>2023-11-13T13:35:00Z</time>
      </trkpt>
      <trkpt lat="43.63441" lon="6.29208">
        <ele>938.1</ele>
        <time>2023-11-13T13:35:11Z</time>
      </trkpt>
      <trkpt lat="43.63449" lon="6.29204">
        <ele>936.2</ele>
        <time>2023-11-13T13:35:23Z</time>
      </trkpt>
      <trkpt lat="43.63458" lon="6.29199">
        <ele>934.4</ele>
        <time>2023-11-13T13:35:40Z</time>
      </trkpt>
      <trkpt lat="43.63466" lon="6.29193">
        <ele>933.6</ele>
        <time>2023-11-13T13:35:52Z</time>
      </trkpt>
      <trkpt lat="43.63474" lon="6.29188">
        <ele>930.7</ele>
        <time>2023-11-13T13:36:03Z</time>
      </trkpt>
      <trkpt lat="43.63484" lon="6.29188">
        <ele>927.1</ele>
        <time>2023-11-13T13:36:15Z</time>
      </trkpt>
      <trkpt lat="43.63493" lon="6.29187">
        <ele>925.6</ele>
        <time>2023-11-13T13:36:30Z</time>
      </trkpt>
      <trkpt lat="43.635" lon="6.29178">
        <ele>923</ele>
        <time>2023-11-13T13:36:41Z</time>
      </trkpt>
      <trkpt lat="43.63504" lon="6.29167">
        <ele>922.9</ele>
        <time>2023-11-13T13:36:53Z</time>
      </trkpt>
      <trkpt lat="43.6351" lon="6.29157">
        <ele>923.1</ele>
        <time>2023-11-13T13:37:04Z</time>
      </trkpt>
      <trkpt lat="43.63516" lon="6.29147">
        <ele>922.5</ele>
        <time>2023-11-13T13:37:16Z</time>
      </trkpt>
      <trkpt lat="43.63523" lon="6.29137">
        <ele>921.8</ele>
        <time>2023-11-13T13:37:28Z</time>
      </trkpt>
      <trkpt lat="43.63531" lon="6.2913">
        <ele>920.9</ele>
        <time>2023-11-13T13:37:41Z</time>
      </trkpt>
      <trkpt lat="43.6354" lon="6.29127">
        <ele>920.2</ele>
        <time>2023-11-13T13:37:51Z</time>
      </trkpt>
      <trkpt lat="43.63549" lon="6.29124">
        <ele>918.6</ele>
        <time>2023-11-13T13:38:03Z</time>
      </trkpt>
      <trkpt lat="43.63559" lon="6.29123">
        <ele>917.5</ele>
        <time>2023-11-13T13:38:12Z</time>
      </trkpt>
      <trkpt lat="43.63568" lon="6.29121">
        <ele>916.5</ele>
        <time>2023-11-13T13:38:21Z</time>
      </trkpt>
      <trkpt lat="43.63576" lon="6.29117">
        <ele>915.7</ele>
        <time>2023-11-13T13:38:30Z</time>
      </trkpt>
      <trkpt lat="43.63586" lon="6.29116">
        <ele>915.7</ele>
        <time>2023-11-13T13:38:42Z</time>
      </trkpt>
      <trkpt lat="43.63595" lon="6.2911">
        <ele>916.1</ele>
        <time>2023-11-13T13:38:50Z</time>
      </trkpt>
      <trkpt lat="43.636" lon="6.29101">
        <ele>915.2</ele>
        <time>2023-11-13T13:39:08Z</time>
      </trkpt>
      <trkpt lat="43.63603" lon="6.29088">
        <ele>914.3</ele>
        <time>2023-11-13T13:39:36Z</time>
      </trkpt>
      <trkpt lat="43.63605" lon="6.29075">
        <ele>913.6</ele>
        <time>2023-11-13T13:39:48Z</time>
      </trkpt>
      <trkpt lat="43.63606" lon="6.29062">
        <ele>912.1</ele>
        <time>2023-11-13T13:40:04Z</time>
      </trkpt>
      <trkpt lat="43.63608" lon="6.2905">
        <ele>910.4</ele>
        <time>2023-11-13T13:40:48Z</time>
      </trkpt>
      <trkpt lat="43.63613" lon="6.29039">
        <ele>908.2</ele>
        <time>2023-11-13T13:41:34Z</time>
      </trkpt>
      <trkpt lat="43.63619" lon="6.2903">
        <ele>906.8</ele>
        <time>2023-11-13T13:41:59Z</time>
      </trkpt>
      <trkpt lat="43.63628" lon="6.29024">
        <ele>907</ele>
        <time>2023-11-13T13:42:17Z</time>
      </trkpt>
      <trkpt lat="43.63637" lon="6.29025">
        <ele>905.1</ele>
        <time>2023-11-13T13:42:39Z</time>
      </trkpt>
      <trkpt lat="43.63644" lon="6.29016">
        <ele>904.6</ele>
        <time>2023-11-13T13:42:51Z</time>
      </trkpt>
      <trkpt lat="43.63651" lon="6.29008">
        <ele>897.9</ele>
        <time>2023-11-13T13:43:03Z</time>
      </trkpt>
      <trkpt lat="43.63657" lon="6.28996">
        <ele>904.5</ele>
        <time>2023-11-13T13:43:21Z</time>
      </trkpt>
      <trkpt lat="43.63664" lon="6.28987">
        <ele>901.8</ele>
        <time>2023-11-13T13:43:31Z</time>
      </trkpt>
      <trkpt lat="43.6367" lon="6.28977">
        <ele>899.5</ele>
        <time>2023-11-13T13:43:41Z</time>
      </trkpt>
      <trkpt lat="43.63676" lon="6.28968">
        <ele>897.1</ele>
        <time>2023-11-13T13:43:51Z</time>
      </trkpt>
      <trkpt lat="43.63681" lon="6.28957">
        <ele>895</ele>
        <time>2023-11-13T13:44:00Z</time>
      </trkpt>
      <trkpt lat="43.63688" lon="6.28947">
        <ele>892.7</ele>
        <time>2023-11-13T13:44:15Z</time>
      </trkpt>
      <trkpt lat="43.63697" lon="6.28942">
        <ele>891.9</ele>
        <time>2023-11-13T13:44:32Z</time>
      </trkpt>
      <trkpt lat="43.63704" lon="6.28933">
        <ele>892</ele>
        <time>2023-11-13T13:44:42Z</time>
      </trkpt>
      <trkpt lat="43.6371" lon="6.28924">
        <ele>890.6</ele>
        <time>2023-11-13T13:44:52Z</time>
      </trkpt>
      <trkpt lat="43.63716" lon="6.28914">
        <ele>888.1</ele>
        <time>2023-11-13T13:45:05Z</time>
      </trkpt>
      <trkpt lat="43.63723" lon="6.28904">
        <ele>886.8</ele>
        <time>2023-11-13T13:45:18Z</time>
      </trkpt>
      <trkpt lat="43.63725" lon="6.28891">
        <ele>885.5</ele>
        <time>2023-11-13T13:45:28Z</time>
      </trkpt>
      <trkpt lat="43.63726" lon="6.28878">
        <ele>884.4</ele>
        <time>2023-11-13T13:45:38Z</time>
      </trkpt>
      <trkpt lat="43.6373" lon="6.28866">
        <ele>882.8</ele>
        <time>2023-11-13T13:45:48Z</time>
      </trkpt>
      <trkpt lat="43.63738" lon="6.28859">
        <ele>879.8</ele>
        <time>2023-11-13T13:45:58Z</time>
      </trkpt>
      <trkpt lat="43.63741" lon="6.28847">
        <ele>878.8</ele>
        <time>2023-11-13T13:46:08Z</time>
      </trkpt>
      <trkpt lat="43.63744" lon="6.28835">
        <ele>877.5</ele>
        <time>2023-11-13T13:46:19Z</time>
      </trkpt>
      <trkpt lat="43.63747" lon="6.28822">
        <ele>876.3</ele>
        <time>2023-11-13T13:46:29Z</time>
      </trkpt>
      <trkpt lat="43.63749" lon="6.28809">
        <ele>875</ele>
        <time>2023-11-13T13:46:39Z</time>
      </trkpt>
      <trkpt lat="43.63753" lon="6.28796">
        <ele>873.5</ele>
        <time>2023-11-13T13:46:51Z</time>
      </trkpt>
      <trkpt lat="43.63758" lon="6.28785">
        <ele>872.6</ele>
        <time>2023-11-13T13:47:01Z</time>
      </trkpt>
      <trkpt lat="43.63761" lon="6.28773">
        <ele>871.3</ele>
        <time>2023-11-13T13:47:11Z</time>
      </trkpt>
      <trkpt lat="43.63764" lon="6.28761">
        <ele>869.7</ele>
        <time>2023-11-13T13:47:22Z</time>
      </trkpt>
      <trkpt lat="43.63771" lon="6.28752">
        <ele>867.6</ele>
        <time>2023-11-13T13:47:58Z</time>
      </trkpt>
      <trkpt lat="43.63772" lon="6.2874">
        <ele>866.7</ele>
        <time>2023-11-13T13:48:19Z</time>
      </trkpt>
      <trkpt lat="43.63781" lon="6.28735">
        <ele>865.3</ele>
        <time>2023-11-13T13:48:56Z</time>
      </trkpt>
      <trkpt lat="43.63789" lon="6.28738">
        <ele>861</ele>
        <time>2023-11-13T13:49:14Z</time>
      </trkpt>
      <trkpt lat="43.63799" lon="6.28742">
        <ele>860.1</ele>
        <time>2023-11-13T13:49:25Z</time>
      </trkpt>
      <trkpt lat="43.63807" lon="6.28748">
        <ele>860.5</ele>
        <time>2023-11-13T13:54:11Z</time>
      </trkpt>
      <trkpt lat="43.63816" lon="6.28752">
        <ele>860.4</ele>
        <time>2023-11-13T13:54:20Z</time>
      </trkpt>
      <trkpt lat="43.63824" lon="6.28758">
        <ele>860.1</ele>
        <time>2023-11-13T13:54:30Z</time>
      </trkpt>
      <trkpt lat="43.6383" lon="6.2877">
        <ele>859.6</ele>
        <time>2023-11-13T13:54:39Z</time>
      </trkpt>
      <trkpt lat="43.63836" lon="6.28781">
        <ele>859.1</ele>
        <time>2023-11-13T13:54:48Z</time>
      </trkpt>
      <trkpt lat="43.6384" lon="6.28793">
        <ele>858.5</ele>
        <time>2023-11-13T13:54:59Z</time>
      </trkpt>
      <trkpt lat="43.63843" lon="6.28804">
        <ele>858.1</ele>
        <time>2023-11-13T13:55:08Z</time>
      </trkpt>
      <trkpt lat="43.63844" lon="6.28817">
        <ele>857.5</ele>
        <time>2023-11-13T13:55:24Z</time>
      </trkpt>
      <trkpt lat="43.63845" lon="6.2883">
        <ele>855.5</ele>
        <time>2023-11-13T13:55:34Z</time>
      </trkpt>
      <trkpt lat="43.63847" lon="6.28842">
        <ele>854.7</ele>
        <time>2023-11-13T13:55:43Z</time>
      </trkpt>
      <trkpt lat="43.63848" lon="6.28856">
        <ele>856.6</ele>
        <time>2023-11-13T13:56:07Z</time>
      </trkpt>
      <trkpt lat="43.6385" lon="6.28868">
        <ele>855.9</ele>
        <time>2023-11-13T13:56:16Z</time>
      </trkpt>
      <trkpt lat="43.63852" lon="6.28881">
        <ele>856.1</ele>
        <time>2023-11-13T13:56:27Z</time>
      </trkpt>
      <trkpt lat="43.63855" lon="6.28893">
        <ele>857.4</ele>
        <time>2023-11-13T13:56:55Z</time>
      </trkpt>
      <trkpt lat="43.63858" lon="6.28905">
        <ele>857.5</ele>
        <time>2023-11-13T13:57:04Z</time>
      </trkpt>
      <trkpt lat="43.63866" lon="6.28913">
        <ele>858.5</ele>
        <time>2023-11-13T13:57:13Z</time>
      </trkpt>
      <trkpt lat="43.63875" lon="6.28917">
        <ele>858.3</ele>
        <time>2023-11-13T13:57:24Z</time>
      </trkpt>
      <trkpt lat="43.63884" lon="6.28918">
        <ele>857.5</ele>
        <time>2023-11-13T13:57:45Z</time>
      </trkpt>
      <trkpt lat="43.63893" lon="6.28917">
        <ele>858.7</ele>
        <time>2023-11-13T13:57:59Z</time>
      </trkpt>
      <trkpt lat="43.63903" lon="6.28914">
        <ele>859.1</ele>
        <time>2023-11-13T13:58:11Z</time>
      </trkpt>
      <trkpt lat="43.63911" lon="6.28911">
        <ele>856.4</ele>
        <time>2023-11-13T13:58:26Z</time>
      </trkpt>
      <trkpt lat="43.63921" lon="6.28909">
        <ele>858.9</ele>
        <time>2023-11-13T13:58:36Z</time>
      </trkpt>
      <trkpt lat="43.6393" lon="6.28906">
        <ele>859.4</ele>
        <time>2023-11-13T13:58:45Z</time>
      </trkpt>
      <trkpt lat="43.63939" lon="6.28902">
        <ele>859</ele>
        <time>2023-11-13T13:58:54Z</time>
      </trkpt>
      <trkpt lat="43.63948" lon="6.28898">
        <ele>858.6</ele>
        <time>2023-11-13T13:59:05Z</time>
      </trkpt>
      <trkpt lat="43.63958" lon="6.28896">
        <ele>858.2</ele>
        <time>2023-11-13T13:59:16Z</time>
      </trkpt>
      <trkpt lat="43.63967" lon="6.28892">
        <ele>857.9</ele>
        <time>2023-11-13T13:59:25Z</time>
      </trkpt>
      <trkpt lat="43.63977" lon="6.2889">
        <ele>857.9</ele>
        <time>2023-11-13T13:59:34Z</time>
      </trkpt>
      <trkpt lat="43.63986" lon="6.28888">
        <ele>857.5</ele>
        <time>2023-11-13T13:59:43Z</time>
      </trkpt>
      <trkpt lat="43.63996" lon="6.28886">
        <ele>857.4</ele>
        <time>2023-11-13T13:59:51Z</time>
      </trkpt>
      <trkpt lat="43.64005" lon="6.28887">
        <ele>857.1</ele>
        <time>2023-11-13T14:00:00Z</time>
      </trkpt>
      <trkpt lat="43.64014" lon="6.28888">
        <ele>856.6</ele>
        <time>2023-11-13T14:00:08Z</time>
      </trkpt>
      <trkpt lat="43.64023" lon="6.28887">
        <ele>855.8</ele>
        <time>2023-11-13T14:00:16Z</time>
      </trkpt>
      <trkpt lat="43.64032" lon="6.28881">
        <ele>855.1</ele>
        <time>2023-11-13T14:00:24Z</time>
      </trkpt>
      <trkpt lat="43.64041" lon="6.28875">
        <ele>854.8</ele>
        <time>2023-11-13T14:00:33Z</time>
      </trkpt>
      <trkpt lat="43.6405" lon="6.28873">
        <ele>855</ele>
        <time>2023-11-13T14:00:41Z</time>
      </trkpt>
      <trkpt lat="43.64059" lon="6.28872">
        <ele>855.4</ele>
        <time>2023-11-13T14:00:48Z</time>
      </trkpt>
      <trkpt lat="43.64068" lon="6.28871">
        <ele>855.7</ele>
        <time>2023-11-13T14:00:57Z</time>
      </trkpt>
      <trkpt lat="43.64077" lon="6.28869">
        <ele>855.4</ele>
        <time>2023-11-13T14:01:06Z</time>
      </trkpt>
      <trkpt lat="43.64086" lon="6.28866">
        <ele>855.4</ele>
        <time>2023-11-13T14:01:15Z</time>
      </trkpt>
      <trkpt lat="43.64097" lon="6.28863">
        <ele>855.5</ele>
        <time>2023-11-13T14:01:28Z</time>
      </trkpt>
      <trkpt lat="43.64106" lon="6.28861">
        <ele>855.3</ele>
        <time>2023-11-13T14:01:36Z</time>
      </trkpt>
      <trkpt lat="43.64115" lon="6.28859">
        <ele>855.3</ele>
        <time>2023-11-13T14:01:44Z</time>
      </trkpt>
      <trkpt lat="43.64125" lon="6.28859">
        <ele>855.1</ele>
        <time>2023-11-13T14:01:51Z</time>
      </trkpt>
      <trkpt lat="43.64134" lon="6.28858">
        <ele>854.8</ele>
        <time>2023-11-13T14:01:58Z</time>
      </trkpt>
      <trkpt lat="43.64145" lon="6.28856">
        <ele>854.4</ele>
        <time>2023-11-13T14:02:06Z</time>
      </trkpt>
      <trkpt lat="43.64154" lon="6.28853">
        <ele>854.3</ele>
        <time>2023-11-13T14:02:13Z</time>
      </trkpt>
      <trkpt lat="43.64163" lon="6.28852">
        <ele>854.2</ele>
        <time>2023-11-13T14:02:20Z</time>
      </trkpt>
      <trkpt lat="43.64173" lon="6.28851">
        <ele>854.1</ele>
        <time>2023-11-13T14:02:27Z</time>
      </trkpt>
      <trkpt lat="43.64183" lon="6.28853">
        <ele>853.7</ele>
        <time>2023-11-13T14:02:35Z</time>
      </trkpt>
      <trkpt lat="43.64192" lon="6.28852">
        <ele>853.7</ele>
        <time>2023-11-13T14:02:49Z</time>
      </trkpt>
      <trkpt lat="43.64196" lon="6.28863">
        <ele>854.3</ele>
        <time>2023-11-13T14:03:27Z</time>
      </trkpt>
      <trkpt lat="43.64187" lon="6.28863">
        <ele>853.5</ele>
        <time>2023-11-13T14:06:47Z</time>
      </trkpt>
      <trkpt lat="43.64196" lon="6.28859">
        <ele>853.6</ele>
        <time>2023-11-13T14:09:01Z</time>
      </trkpt>
      <trkpt lat="43.64205" lon="6.28862">
        <ele>854.1</ele>
        <time>2023-11-13T14:09:52Z</time>
      </trkpt>
      <trkpt lat="43.64215" lon="6.2886">
        <ele>854.1</ele>
        <time>2023-11-13T14:10:01Z</time>
      </trkpt>
      <trkpt lat="43.64224" lon="6.28862">
        <ele>854.7</ele>
        <time>2023-11-13T14:10:14Z</time>
      </trkpt>
      <trkpt lat="43.64232" lon="6.28857">
        <ele>855</ele>
        <time>2023-11-13T14:10:25Z</time>
      </trkpt>
      <trkpt lat="43.6424" lon="6.2885">
        <ele>855.3</ele>
        <time>2023-11-13T14:10:33Z</time>
      </trkpt>
      <trkpt lat="43.64249" lon="6.28845">
        <ele>855.7</ele>
        <time>2023-11-13T14:10:41Z</time>
      </trkpt>
      <trkpt lat="43.64257" lon="6.28838">
        <ele>856.7</ele>
        <time>2023-11-13T14:10:56Z</time>
      </trkpt>
      <trkpt lat="43.64264" lon="6.28828">
        <ele>856.9</ele>
        <time>2023-11-13T14:11:06Z</time>
      </trkpt>
      <trkpt lat="43.64272" lon="6.2882">
        <ele>856.9</ele>
        <time>2023-11-13T14:11:15Z</time>
      </trkpt>
      <trkpt lat="43.64279" lon="6.2881">
        <ele>856.5</ele>
        <time>2023-11-13T14:11:24Z</time>
      </trkpt>
      <trkpt lat="43.64287" lon="6.28802">
        <ele>856.5</ele>
        <time>2023-11-13T14:11:33Z</time>
      </trkpt>
      <trkpt lat="43.64294" lon="6.28793">
        <ele>856.8</ele>
        <time>2023-11-13T14:11:42Z</time>
      </trkpt>
      <trkpt lat="43.643" lon="6.28783">
        <ele>856.9</ele>
        <time>2023-11-13T14:11:51Z</time>
      </trkpt>
      <trkpt lat="43.64304" lon="6.28772">
        <ele>856.7</ele>
        <time>2023-11-13T14:11:59Z</time>
      </trkpt>
      <trkpt lat="43.64308" lon="6.28759">
        <ele>856.7</ele>
        <time>2023-11-13T14:12:07Z</time>
      </trkpt>
      <trkpt lat="43.64309" lon="6.28746">
        <ele>856.6</ele>
        <time>2023-11-13T14:12:15Z</time>
      </trkpt>
      <trkpt lat="43.6431" lon="6.28733">
        <ele>856.6</ele>
        <time>2023-11-13T14:12:24Z</time>
      </trkpt>
      <trkpt lat="43.64309" lon="6.2872">
        <ele>856.5</ele>
        <time>2023-11-13T14:12:32Z</time>
      </trkpt>
      <trkpt lat="43.64309" lon="6.28706">
        <ele>856.4</ele>
        <time>2023-11-13T14:12:41Z</time>
      </trkpt>
      <trkpt lat="43.64313" lon="6.28693">
        <ele>856.2</ele>
        <time>2023-11-13T14:12:50Z</time>
      </trkpt>
      <trkpt lat="43.64315" lon="6.28681">
        <ele>855.1</ele>
        <time>2023-11-13T14:12:59Z</time>
      </trkpt>
      <trkpt lat="43.64317" lon="6.28668">
        <ele>855.9</ele>
        <time>2023-11-13T14:13:13Z</time>
      </trkpt>
      <trkpt lat="43.64322" lon="6.28657">
        <ele>857</ele>
        <time>2023-11-13T14:13:23Z</time>
      </trkpt>
      <trkpt lat="43.6433" lon="6.28648">
        <ele>856.3</ele>
        <time>2023-11-13T14:13:31Z</time>
      </trkpt>
      <trkpt lat="43.64339" lon="6.28644">
        <ele>855.8</ele>
        <time>2023-11-13T14:13:40Z</time>
      </trkpt>
      <trkpt lat="43.64348" lon="6.28639">
        <ele>855.7</ele>
        <time>2023-11-13T14:13:48Z</time>
      </trkpt>
      <trkpt lat="43.64356" lon="6.28632">
        <ele>855.3</ele>
        <time>2023-11-13T14:13:56Z</time>
      </trkpt>
      <trkpt lat="43.64364" lon="6.28625">
        <ele>855.4</ele>
        <time>2023-11-13T14:14:04Z</time>
      </trkpt>
      <trkpt lat="43.64373" lon="6.28619">
        <ele>855.5</ele>
        <time>2023-11-13T14:14:12Z</time>
      </trkpt>
      <trkpt lat="43.64381" lon="6.28613">
        <ele>855.5</ele>
        <time>2023-11-13T14:14:21Z</time>
      </trkpt>
      <trkpt lat="43.64389" lon="6.28606">
        <ele>855.7</ele>
        <time>2023-11-13T14:14:30Z</time>
      </trkpt>
      <trkpt lat="43.64397" lon="6.28598">
        <ele>855.6</ele>
        <time>2023-11-13T14:14:39Z</time>
      </trkpt>
      <trkpt lat="43.64404" lon="6.2859">
        <ele>855.6</ele>
        <time>2023-11-13T14:14:47Z</time>
      </trkpt>
      <trkpt lat="43.6441" lon="6.28581">
        <ele>855.7</ele>
        <time>2023-11-13T14:14:54Z</time>
      </trkpt>
      <trkpt lat="43.64417" lon="6.2857">
        <ele>855.7</ele>
        <time>2023-11-13T14:15:02Z</time>
      </trkpt>
      <trkpt lat="43.64421" lon="6.28559">
        <ele>855.5</ele>
        <time>2023-11-13T14:15:11Z</time>
      </trkpt>
      <trkpt lat="43.64428" lon="6.28549">
        <ele>855.1</ele>
        <time>2023-11-13T14:15:22Z</time>
      </trkpt>
      <trkpt lat="43.64436" lon="6.28545">
        <ele>855.7</ele>
        <time>2023-11-13T14:15:30Z</time>
      </trkpt>
      <trkpt lat="43.64446" lon="6.28541">
        <ele>855.6</ele>
        <time>2023-11-13T14:15:38Z</time>
      </trkpt>
      <trkpt lat="43.64455" lon="6.28534">
        <ele>855.3</ele>
        <time>2023-11-13T14:15:47Z</time>
      </trkpt>
      <trkpt lat="43.64463" lon="6.28528">
        <ele>855</ele>
        <time>2023-11-13T14:15:54Z</time>
      </trkpt>
      <trkpt lat="43.64472" lon="6.28523">
        <ele>855.1</ele>
        <time>2023-11-13T14:16:02Z</time>
      </trkpt>
      <trkpt lat="43.64481" lon="6.28517">
        <ele>854.9</ele>
        <time>2023-11-13T14:16:10Z</time>
      </trkpt>
      <trkpt lat="43.6449" lon="6.28512">
        <ele>855</ele>
        <time>2023-11-13T14:16:18Z</time>
      </trkpt>
      <trkpt lat="43.64499" lon="6.28506">
        <ele>855.1</ele>
        <time>2023-11-13T14:16:28Z</time>
      </trkpt>
      <trkpt lat="43.64508" lon="6.28503">
        <ele>854.9</ele>
        <time>2023-11-13T14:16:36Z</time>
      </trkpt>
      <trkpt lat="43.64516" lon="6.28496">
        <ele>854.8</ele>
        <time>2023-11-13T14:16:45Z</time>
      </trkpt>
      <trkpt lat="43.64525" lon="6.28491">
        <ele>854.4</ele>
        <time>2023-11-13T14:16:53Z</time>
      </trkpt>
      <trkpt lat="43.64533" lon="6.28485">
        <ele>854.2</ele>
        <time>2023-11-13T14:17:01Z</time>
      </trkpt>
      <trkpt lat="43.6454" lon="6.28477">
        <ele>854.4</ele>
        <time>2023-11-13T14:17:11Z</time>
      </trkpt>
      <trkpt lat="43.64548" lon="6.2847">
        <ele>853.5</ele>
        <time>2023-11-13T14:17:19Z</time>
      </trkpt>
      <trkpt lat="43.64556" lon="6.28462">
        <ele>853.8</ele>
        <time>2023-11-13T14:17:27Z</time>
      </trkpt>
      <trkpt lat="43.64564" lon="6.28454">
        <ele>854</ele>
        <time>2023-11-13T14:17:35Z</time>
      </trkpt>
      <trkpt lat="43.64571" lon="6.28445">
        <ele>854</ele>
        <time>2023-11-13T14:17:44Z</time>
      </trkpt>
      <trkpt lat="43.64577" lon="6.28436">
        <ele>853.5</ele>
        <time>2023-11-13T14:17:52Z</time>
      </trkpt>
      <trkpt lat="43.64584" lon="6.28425">
        <ele>852.7</ele>
        <time>2023-11-13T14:18:02Z</time>
      </trkpt>
      <trkpt lat="43.64588" lon="6.28414">
        <ele>853.4</ele>
        <time>2023-11-13T14:18:11Z</time>
      </trkpt>
      <trkpt lat="43.64593" lon="6.28403">
        <ele>853.3</ele>
        <time>2023-11-13T14:18:20Z</time>
      </trkpt>
      <trkpt lat="43.64598" lon="6.28392">
        <ele>853.7</ele>
        <time>2023-11-13T14:18:28Z</time>
      </trkpt>
      <trkpt lat="43.64603" lon="6.28381">
        <ele>853.5</ele>
        <time>2023-11-13T14:18:36Z</time>
      </trkpt>
      <trkpt lat="43.64609" lon="6.28371">
        <ele>852.9</ele>
        <time>2023-11-13T14:18:43Z</time>
      </trkpt>
      <trkpt lat="43.64613" lon="6.28358">
        <ele>852.5</ele>
        <time>2023-11-13T14:18:52Z</time>
      </trkpt>
      <trkpt lat="43.64619" lon="6.28347">
        <ele>852.6</ele>
        <time>2023-11-13T14:19:01Z</time>
      </trkpt>
      <trkpt lat="43.64622" lon="6.28334">
        <ele>852.6</ele>
        <time>2023-11-13T14:19:09Z</time>
      </trkpt>
      <trkpt lat="43.64628" lon="6.28323">
        <ele>852.5</ele>
        <time>2023-11-13T14:19:17Z</time>
      </trkpt>
      <trkpt lat="43.64633" lon="6.28311">
        <ele>852.4</ele>
        <time>2023-11-13T14:19:26Z</time>
      </trkpt>
      <trkpt lat="43.64637" lon="6.283">
        <ele>852.4</ele>
        <time>2023-11-13T14:19:34Z</time>
      </trkpt>
      <trkpt lat="43.64642" lon="6.28288">
        <ele>852.3</ele>
        <time>2023-11-13T14:19:45Z</time>
      </trkpt>
      <trkpt lat="43.64646" lon="6.28276">
        <ele>852.5</ele>
        <time>2023-11-13T14:19:54Z</time>
      </trkpt>
      <trkpt lat="43.64651" lon="6.28265">
        <ele>852.4</ele>
        <time>2023-11-13T14:20:03Z</time>
      </trkpt>
      <trkpt lat="43.64657" lon="6.28254">
        <ele>852.3</ele>
        <time>2023-11-13T14:20:12Z</time>
      </trkpt>
      <trkpt lat="43.64663" lon="6.28243">
        <ele>852.5</ele>
        <time>2023-11-13T14:20:21Z</time>
      </trkpt>
      <trkpt lat="43.64668" lon="6.28233">
        <ele>852.6</ele>
        <time>2023-11-13T14:20:29Z</time>
      </trkpt>
      <trkpt lat="43.64671" lon="6.2822">
        <ele>852.4</ele>
        <time>2023-11-13T14:20:38Z</time>
      </trkpt>
      <trkpt lat="43.64675" lon="6.28209">
        <ele>852.4</ele>
        <time>2023-11-13T14:20:46Z</time>
      </trkpt>
      <trkpt lat="43.64679" lon="6.28197">
        <ele>852.6</ele>
        <time>2023-11-13T14:20:54Z</time>
      </trkpt>
      <trkpt lat="43.64685" lon="6.28187">
        <ele>852.7</ele>
        <time>2023-11-13T14:21:03Z</time>
      </trkpt>
      <trkpt lat="43.64691" lon="6.28177">
        <ele>852.6</ele>
        <time>2023-11-13T14:21:13Z</time>
      </trkpt>
      <trkpt lat="43.64697" lon="6.28165">
        <ele>852.3</ele>
        <time>2023-11-13T14:21:23Z</time>
      </trkpt>
      <trkpt lat="43.64701" lon="6.28154">
        <ele>852.3</ele>
        <time>2023-11-13T14:21:31Z</time>
      </trkpt>
      <trkpt lat="43.64709" lon="6.28146">
        <ele>852.3</ele>
        <time>2023-11-13T14:21:39Z</time>
      </trkpt>
      <trkpt lat="43.64715" lon="6.28137">
        <ele>852.3</ele>
        <time>2023-11-13T14:21:47Z</time>
      </trkpt>
      <trkpt lat="43.64722" lon="6.28127">
        <ele>852.3</ele>
        <time>2023-11-13T14:21:56Z</time>
      </trkpt>
      <trkpt lat="43.64729" lon="6.28118">
        <ele>853.1</ele>
        <time>2023-11-13T14:22:05Z</time>
      </trkpt>
      <trkpt lat="43.64737" lon="6.28109">
        <ele>853.4</ele>
        <time>2023-11-13T14:22:13Z</time>
      </trkpt>
      <trkpt lat="43.64744" lon="6.28102">
        <ele>853.5</ele>
        <time>2023-11-13T14:22:21Z</time>
      </trkpt>
      <trkpt lat="43.64752" lon="6.28094">
        <ele>853.2</ele>
        <time>2023-11-13T14:22:30Z</time>
      </trkpt>
      <trkpt lat="43.64759" lon="6.28085">
        <ele>853.4</ele>
        <time>2023-11-13T14:22:39Z</time>
      </trkpt>
      <trkpt lat="43.64768" lon="6.28078">
        <ele>853.4</ele>
        <time>2023-11-13T14:22:48Z</time>
      </trkpt>
      <trkpt lat="43.64776" lon="6.28072">
        <ele>853.4</ele>
        <time>2023-11-13T14:22:56Z</time>
      </trkpt>
      <trkpt lat="43.64784" lon="6.28063">
        <ele>853.4</ele>
        <time>2023-11-13T14:23:07Z</time>
      </trkpt>
      <trkpt lat="43.64792" lon="6.28057">
        <ele>853.6</ele>
        <time>2023-11-13T14:23:14Z</time>
      </trkpt>
      <trkpt lat="43.648" lon="6.28051">
        <ele>853.8</ele>
        <time>2023-11-13T14:23:22Z</time>
      </trkpt>
      <trkpt lat="43.64807" lon="6.28042">
        <ele>853.9</ele>
        <time>2023-11-13T14:23:33Z</time>
      </trkpt>
      <trkpt lat="43.64815" lon="6.28036">
        <ele>853.9</ele>
        <time>2023-11-13T14:23:40Z</time>
      </trkpt>
      <trkpt lat="43.64822" lon="6.28029">
        <ele>853.6</ele>
        <time>2023-11-13T14:23:48Z</time>
      </trkpt>
      <trkpt lat="43.6483" lon="6.28022">
        <ele>853.6</ele>
        <time>2023-11-13T14:23:56Z</time>
      </trkpt>
      <trkpt lat="43.64836" lon="6.28012">
        <ele>853.6</ele>
        <time>2023-11-13T14:24:05Z</time>
      </trkpt>
      <trkpt lat="43.64842" lon="6.28001">
        <ele>853.9</ele>
        <time>2023-11-13T14:24:14Z</time>
      </trkpt>
      <trkpt lat="43.64848" lon="6.27991">
        <ele>853.8</ele>
        <time>2023-11-13T14:24:23Z</time>
      </trkpt>
      <trkpt lat="43.64855" lon="6.27981">
        <ele>853.7</ele>
        <time>2023-11-13T14:24:33Z</time>
      </trkpt>
      <trkpt lat="43.64862" lon="6.27973">
        <ele>853.8</ele>
        <time>2023-11-13T14:24:42Z</time>
      </trkpt>
      <trkpt lat="43.64871" lon="6.27967">
        <ele>853.7</ele>
        <time>2023-11-13T14:24:50Z</time>
      </trkpt>
      <trkpt lat="43.64879" lon="6.27959">
        <ele>853.8</ele>
        <time>2023-11-13T14:24:58Z</time>
      </trkpt>
      <trkpt lat="43.64884" lon="6.27949">
        <ele>853.1</ele>
        <time>2023-11-13T14:25:08Z</time>
      </trkpt>
      <trkpt lat="43.64891" lon="6.2794">
        <ele>853.5</ele>
        <time>2023-11-13T14:25:17Z</time>
      </trkpt>
      <trkpt lat="43.64899" lon="6.2793">
        <ele>853.7</ele>
        <time>2023-11-13T14:25:25Z</time>
      </trkpt>
      <trkpt lat="43.64908" lon="6.27922">
        <ele>853.9</ele>
        <time>2023-11-13T14:25:34Z</time>
      </trkpt>
      <trkpt lat="43.64914" lon="6.27913">
        <ele>854.1</ele>
        <time>2023-11-13T14:25:42Z</time>
      </trkpt>
      <trkpt lat="43.64922" lon="6.27905">
        <ele>854.3</ele>
        <time>2023-11-13T14:25:50Z</time>
      </trkpt>
      <trkpt lat="43.64925" lon="6.27894">
        <ele>854</ele>
        <time>2023-11-13T14:26:00Z</time>
      </trkpt>
      <trkpt lat="43.64922" lon="6.27881">
        <ele>854.4</ele>
        <time>2023-11-13T14:26:08Z</time>
      </trkpt>
      <trkpt lat="43.64922" lon="6.27868">
        <ele>853.9</ele>
        <time>2023-11-13T14:26:16Z</time>
      </trkpt>
      <trkpt lat="43.64925" lon="6.27856">
        <ele>854.1</ele>
        <time>2023-11-13T14:26:27Z</time>
      </trkpt>
      <trkpt lat="43.64928" lon="6.27844">
        <ele>852.1</ele>
        <time>2023-11-13T14:26:47Z</time>
      </trkpt>
      <trkpt lat="43.64932" lon="6.27832">
        <ele>854</ele>
        <time>2023-11-13T14:26:59Z</time>
      </trkpt>
      <trkpt lat="43.64936" lon="6.2782">
        <ele>853.9</ele>
        <time>2023-11-13T14:27:11Z</time>
      </trkpt>
      <trkpt lat="43.64929" lon="6.27811">
        <ele>854</ele>
        <time>2023-11-13T14:27:30Z</time>
      </trkpt>
      <trkpt lat="43.64929" lon="6.27798">
        <ele>852</ele>
        <time>2023-11-13T14:28:19Z</time>
      </trkpt>
      <trkpt lat="43.64926" lon="6.27786">
        <ele>854.3</ele>
        <time>2023-11-13T14:28:35Z</time>
      </trkpt>
      <trkpt lat="43.64921" lon="6.27776">
        <ele>856.5</ele>
        <time>2023-11-13T14:29:02Z</time>
      </trkpt>
      <trkpt lat="43.6492" lon="6.27763">
        <ele>858.3</ele>
        <time>2023-11-13T14:29:18Z</time>
      </trkpt>
      <trkpt lat="43.64927" lon="6.27754">
        <ele>861.1</ele>
        <time>2023-11-13T14:29:35Z</time>
      </trkpt>
      <trkpt lat="43.64928" lon="6.27742">
        <ele>861.4</ele>
        <time>2023-11-13T14:29:50Z</time>
      </trkpt>
      <trkpt lat="43.64926" lon="6.27728">
        <ele>861.1</ele>
        <time>2023-11-13T14:30:03Z</time>
      </trkpt>
      <trkpt lat="43.64922" lon="6.27717">
        <ele>861.8</ele>
        <time>2023-11-13T14:30:14Z</time>
      </trkpt>
      <trkpt lat="43.6492" lon="6.27704">
        <ele>863.7</ele>
        <time>2023-11-13T14:30:26Z</time>
      </trkpt>
      <trkpt lat="43.64914" lon="6.27694">
        <ele>864.7</ele>
        <time>2023-11-13T14:30:34Z</time>
      </trkpt>
      <trkpt lat="43.64914" lon="6.2768">
        <ele>865.6</ele>
        <time>2023-11-13T14:30:53Z</time>
      </trkpt>
      <trkpt lat="43.64909" lon="6.27668">
        <ele>865.6</ele>
        <time>2023-11-13T14:31:05Z</time>
      </trkpt>
      <trkpt lat="43.64906" lon="6.27655">
        <ele>867.2</ele>
        <time>2023-11-13T14:31:16Z</time>
      </trkpt>
      <trkpt lat="43.64902" lon="6.27644">
        <ele>868.4</ele>
        <time>2023-11-13T14:31:28Z</time>
      </trkpt>
      <trkpt lat="43.64903" lon="6.2763">
        <ele>869.3</ele>
        <time>2023-11-13T14:31:47Z</time>
      </trkpt>
      <trkpt lat="43.64903" lon="6.27617">
        <ele>870.8</ele>
        <time>2023-11-13T14:32:02Z</time>
      </trkpt>
      <trkpt lat="43.64897" lon="6.27605">
        <ele>871.6</ele>
        <time>2023-11-13T14:32:13Z</time>
      </trkpt>
      <trkpt lat="43.64892" lon="6.27594">
        <ele>873.3</ele>
        <time>2023-11-13T14:32:24Z</time>
      </trkpt>
      <trkpt lat="43.64887" lon="6.27582">
        <ele>874.6</ele>
        <time>2023-11-13T14:32:43Z</time>
      </trkpt>
      <trkpt lat="43.64883" lon="6.27569">
        <ele>876.7</ele>
        <time>2023-11-13T14:33:00Z</time>
      </trkpt>
      <trkpt lat="43.64878" lon="6.27558">
        <ele>878.1</ele>
        <time>2023-11-13T14:33:13Z</time>
      </trkpt>
      <trkpt lat="43.64887" lon="6.27556">
        <ele>881.1</ele>
        <time>2023-11-13T14:33:58Z</time>
      </trkpt>
      <trkpt lat="43.64896" lon="6.27561">
        <ele>881.9</ele>
        <time>2023-11-13T14:34:13Z</time>
      </trkpt>
      <trkpt lat="43.64904" lon="6.27567">
        <ele>881.1</ele>
        <time>2023-11-13T14:34:31Z</time>
      </trkpt>
      <trkpt lat="43.64912" lon="6.27574">
        <ele>881.3</ele>
        <time>2023-11-13T14:35:14Z</time>
      </trkpt>
      <trkpt lat="43.64921" lon="6.27572">
        <ele>880.7</ele>
        <time>2023-11-13T14:36:12Z</time>
      </trkpt>
      <trkpt lat="43.6493" lon="6.27575">
        <ele>880.9</ele>
        <time>2023-11-13T14:36:20Z</time>
      </trkpt>
      <trkpt lat="43.64938" lon="6.2758">
        <ele>882.7</ele>
        <time>2023-11-13T14:36:35Z</time>
      </trkpt>
      <trkpt lat="43.64947" lon="6.27585">
        <ele>883.7</ele>
        <time>2023-11-13T14:36:44Z</time>
      </trkpt>
      <trkpt lat="43.64955" lon="6.27588">
        <ele>883.4</ele>
        <time>2023-11-13T14:37:00Z</time>
      </trkpt>
      <trkpt lat="43.64965" lon="6.27588">
        <ele>880.7</ele>
        <time>2023-11-13T14:38:12Z</time>
      </trkpt>
      <trkpt lat="43.64972" lon="6.2758">
        <ele>878.9</ele>
        <time>2023-11-13T14:38:24Z</time>
      </trkpt>
      <trkpt lat="43.64981" lon="6.27573">
        <ele>877.6</ele>
        <time>2023-11-13T14:38:33Z</time>
      </trkpt>
      <trkpt lat="43.64988" lon="6.27565">
        <ele>876.9</ele>
        <time>2023-11-13T14:38:44Z</time>
      </trkpt>
      <trkpt lat="43.64997" lon="6.27558">
        <ele>876.5</ele>
        <time>2023-11-13T14:38:55Z</time>
      </trkpt>
      <trkpt lat="43.65005" lon="6.27551">
        <ele>875.2</ele>
        <time>2023-11-13T14:39:08Z</time>
      </trkpt>
      <trkpt lat="43.65014" lon="6.27546">
        <ele>874.2</ele>
        <time>2023-11-13T14:39:16Z</time>
      </trkpt>
      <trkpt lat="43.65023" lon="6.27543">
        <ele>874</ele>
        <time>2023-11-13T14:39:28Z</time>
      </trkpt>
      <trkpt lat="43.65032" lon="6.2754">
        <ele>871.1</ele>
        <time>2023-11-13T14:39:40Z</time>
      </trkpt>
      <trkpt lat="43.6504" lon="6.27534">
        <ele>871.4</ele>
        <time>2023-11-13T14:39:49Z</time>
      </trkpt>
      <trkpt lat="43.6505" lon="6.27532">
        <ele>871.9</ele>
        <time>2023-11-13T14:39:58Z</time>
      </trkpt>
      <trkpt lat="43.65058" lon="6.27529">
        <ele>871.2</ele>
        <time>2023-11-13T14:40:08Z</time>
      </trkpt>
      <trkpt lat="43.65067" lon="6.27524">
        <ele>870</ele>
        <time>2023-11-13T14:40:19Z</time>
      </trkpt>
      <trkpt lat="43.65076" lon="6.27522">
        <ele>868.3</ele>
        <time>2023-11-13T14:40:32Z</time>
      </trkpt>
      <trkpt lat="43.65086" lon="6.27518">
        <ele>866.4</ele>
        <time>2023-11-13T14:40:45Z</time>
      </trkpt>
      <trkpt lat="43.65094" lon="6.27513">
        <ele>864.7</ele>
        <time>2023-11-13T14:40:55Z</time>
      </trkpt>
      <trkpt lat="43.65103" lon="6.27507">
        <ele>864</ele>
        <time>2023-11-13T14:41:06Z</time>
      </trkpt>
      <trkpt lat="43.65111" lon="6.275">
        <ele>862.5</ele>
        <time>2023-11-13T14:41:16Z</time>
      </trkpt>
      <trkpt lat="43.6512" lon="6.27497">
        <ele>860.8</ele>
        <time>2023-11-13T14:41:24Z</time>
      </trkpt>
      <trkpt lat="43.65129" lon="6.27496">
        <ele>859</ele>
        <time>2023-11-13T14:41:36Z</time>
      </trkpt>
      <trkpt lat="43.65138" lon="6.27498">
        <ele>857.5</ele>
        <time>2023-11-13T14:41:47Z</time>
      </trkpt>
      <trkpt lat="43.65147" lon="6.275">
        <ele>856.2</ele>
        <time>2023-11-13T14:41:58Z</time>
      </trkpt>
      <trkpt lat="43.65157" lon="6.27499">
        <ele>854.9</ele>
        <time>2023-11-13T14:42:18Z</time>
      </trkpt>
      <trkpt lat="43.65166" lon="6.27501">
        <ele>854.4</ele>
        <time>2023-11-13T14:42:28Z</time>
      </trkpt>
      <trkpt lat="43.65176" lon="6.27499">
        <ele>853.3</ele>
        <time>2023-11-13T14:42:36Z</time>
      </trkpt>
      <trkpt lat="43.65183" lon="6.27492">
        <ele>852</ele>
        <time>2023-11-13T14:42:54Z</time>
      </trkpt>
      <trkpt lat="43.65184" lon="6.27505">
        <ele>851</ele>
        <time>2023-11-13T14:43:27Z</time>
      </trkpt>
      <trkpt lat="43.65193" lon="6.27507">
        <ele>850.1</ele>
        <time>2023-11-13T14:43:38Z</time>
      </trkpt>
      <trkpt lat="43.65202" lon="6.27506">
        <ele>848</ele>
        <time>2023-11-13T14:43:52Z</time>
      </trkpt>
      <trkpt lat="43.6521" lon="6.27501">
        <ele>846.4</ele>
        <time>2023-11-13T14:45:03Z</time>
      </trkpt>
      <trkpt lat="43.65219" lon="6.27495">
        <ele>846.2</ele>
        <time>2023-11-13T14:45:12Z</time>
      </trkpt>
      <trkpt lat="43.65227" lon="6.27487">
        <ele>846.2</ele>
        <time>2023-11-13T14:45:29Z</time>
      </trkpt>
      <trkpt lat="43.65235" lon="6.2748">
        <ele>846.2</ele>
        <time>2023-11-13T14:45:40Z</time>
      </trkpt>
      <trkpt lat="43.65243" lon="6.27474">
        <ele>846.3</ele>
        <time>2023-11-13T14:45:49Z</time>
      </trkpt>
      <trkpt lat="43.65251" lon="6.27468">
        <ele>846.3</ele>
        <time>2023-11-13T14:46:00Z</time>
      </trkpt>
      <trkpt lat="43.65259" lon="6.27461">
        <ele>846.5</ele>
        <time>2023-11-13T14:46:08Z</time>
      </trkpt>
      <trkpt lat="43.65267" lon="6.27454">
        <ele>846.5</ele>
        <time>2023-11-13T14:46:16Z</time>
      </trkpt>
      <trkpt lat="43.65276" lon="6.27447">
        <ele>846.6</ele>
        <time>2023-11-13T14:46:25Z</time>
      </trkpt>
      <trkpt lat="43.65283" lon="6.2744">
        <ele>846.6</ele>
        <time>2023-11-13T14:46:37Z</time>
      </trkpt>
      <trkpt lat="43.65292" lon="6.27432">
        <ele>846.7</ele>
        <time>2023-11-13T14:46:46Z</time>
      </trkpt>
      <trkpt lat="43.653" lon="6.27425">
        <ele>846.6</ele>
        <time>2023-11-13T14:46:54Z</time>
      </trkpt>
      <trkpt lat="43.65308" lon="6.27417">
        <ele>846.3</ele>
        <time>2023-11-13T14:47:05Z</time>
      </trkpt>
      <trkpt lat="43.65315" lon="6.2741">
        <ele>846.4</ele>
        <time>2023-11-13T14:47:12Z</time>
      </trkpt>
      <trkpt lat="43.65323" lon="6.27402">
        <ele>846.5</ele>
        <time>2023-11-13T14:47:20Z</time>
      </trkpt>
      <trkpt lat="43.65331" lon="6.27394">
        <ele>846.5</ele>
        <time>2023-11-13T14:47:28Z</time>
      </trkpt>
      <trkpt lat="43.65337" lon="6.27385">
        <ele>846.3</ele>
        <time>2023-11-13T14:47:37Z</time>
      </trkpt>
      <trkpt lat="43.65343" lon="6.27374">
        <ele>846.2</ele>
        <time>2023-11-13T14:47:47Z</time>
      </trkpt>
      <trkpt lat="43.65349" lon="6.27366">
        <ele>846.3</ele>
        <time>2023-11-13T14:47:55Z</time>
      </trkpt>
      <trkpt lat="43.65356" lon="6.27356">
        <ele>846.1</ele>
        <time>2023-11-13T14:48:04Z</time>
      </trkpt>
      <trkpt lat="43.6536" lon="6.27345">
        <ele>845.8</ele>
        <time>2023-11-13T14:48:12Z</time>
      </trkpt>
      <trkpt lat="43.65366" lon="6.27334">
        <ele>845.5</ele>
        <time>2023-11-13T14:48:21Z</time>
      </trkpt>
      <trkpt lat="43.65371" lon="6.27323">
        <ele>845</ele>
        <time>2023-11-13T14:48:29Z</time>
      </trkpt>
      <trkpt lat="43.65377" lon="6.27313">
        <ele>844.6</ele>
        <time>2023-11-13T14:48:37Z</time>
      </trkpt>
      <trkpt lat="43.65379" lon="6.27299">
        <ele>844.3</ele>
        <time>2023-11-13T14:48:46Z</time>
      </trkpt>
      <trkpt lat="43.65374" lon="6.27289">
        <ele>844.1</ele>
        <time>2023-11-13T14:48:54Z</time>
      </trkpt>
      <trkpt lat="43.65371" lon="6.27277">
        <ele>844.2</ele>
        <time>2023-11-13T14:50:08Z</time>
      </trkpt>
      <trkpt lat="43.65378" lon="6.27274">
        <ele>842.4</ele>
        <time>2023-11-13T14:51:39Z</time>
      </trkpt>
    </trkseg>
  </trk>
</gpx>